﻿<?xml version="1.0" encoding="utf-8"?><gpx creator="Garmin Desktop App" version="1.1" xsi:schemaLocation="http://www.topografix.com/GPX/1/1 http://www.topografix.com/GPX/1/1/gpx.xsd http://www.garmin.com/xmlschemas/WaypointExtension/v1 http://www8.garmin.com/xmlschemas/WaypointExtensionv1.xsd http://www.garmin.com/xmlschemas/TrackPointExtension/v1 http://www.garmin.com/xmlschemas/TrackPointExtensionv1.xsd http://www.garmin.com/xmlschemas/GpxExtensions/v3 http://www8.garmin.com/xmlschemas/GpxExtensionsv3.xsd http://www.garmin.com/xmlschemas/ActivityExtension/v1 http://www8.garmin.com/xmlschemas/ActivityExtensionv1.xsd http://www.garmin.com/xmlschemas/AdventuresExtensions/v1 http://www8.garmin.com/xmlschemas/AdventuresExtensionv1.xsd http://www.garmin.com/xmlschemas/PressureExtension/v1 http://www.garmin.com/xmlschemas/PressureExtensionv1.xsd http://www.garmin.com/xmlschemas/TripExtensions/v1 http://www.garmin.com/xmlschemas/TripExtensionsv1.xsd http://www.garmin.com/xmlschemas/TripMetaDataExtensions/v1 http://www.garmin.com/xmlschemas/TripMetaDataExtensionsv1.xsd http://www.garmin.com/xmlschemas/ViaPointTransportationModeExtensions/v1 http://www.garmin.com/xmlschemas/ViaPointTransportationModeExtensionsv1.xsd http://www.garmin.com/xmlschemas/CreationTimeExtension/v1 http://www.garmin.com/xmlschemas/CreationTimeExtensionsv1.xsd http://www.garmin.com/xmlschemas/AccelerationExtension/v1 http://www.garmin.com/xmlschemas/AccelerationExtensionv1.xsd http://www.garmin.com/xmlschemas/PowerExtension/v1 http://www.garmin.com/xmlschemas/PowerExtensionv1.xsd http://www.garmin.com/xmlschemas/VideoExtension/v1 http://www.garmin.com/xmlschemas/VideoExtensionv1.xsd" xmlns="http://www.topografix.com/GPX/1/1" xmlns:xsi="http://www.w3.org/2001/XMLSchema-instance" xmlns:wptx1="http://www.garmin.com/xmlschemas/WaypointExtension/v1" xmlns:gpxtrx="http://www.garmin.com/xmlschemas/GpxExtensions/v3" xmlns:gpxtpx="http://www.garmin.com/xmlschemas/TrackPointExtension/v1" xmlns:gpxx="http://www.garmin.com/xmlschemas/GpxExtensions/v3" xmlns:trp="http://www.garmin.com/xmlschemas/TripExtensions/v1" xmlns:adv="http://www.garmin.com/xmlschemas/AdventuresExtensions/v1" xmlns:prs="http://www.garmin.com/xmlschemas/PressureExtension/v1" xmlns:tmd="http://www.garmin.com/xmlschemas/TripMetaDataExtensions/v1" xmlns:vptm="http://www.garmin.com/xmlschemas/ViaPointTransportationModeExtensions/v1" xmlns:ctx="http://www.garmin.com/xmlschemas/CreationTimeExtension/v1" xmlns:gpxacc="http://www.garmin.com/xmlschemas/AccelerationExtension/v1" xmlns:gpxpx="http://www.garmin.com/xmlschemas/PowerExtension/v1" xmlns:vidx1="http://www.garmin.com/xmlschemas/VideoExtension/v1">

  <metadata>
    <link href="http://www.garmin.com">
      <text>Garmin International</text>
    </link>
    <time>2021-01-19T07:17:00Z</time>
    <bounds maxlat="45.867499988526106" maxlon="7.656935267150402" minlat="45.850622020661831" minlon="7.6419547945261" />
  </metadata>

  <trk>
    <name>Punta-Falinere-da-Cheneill</name>
    <extensions>
      <gpxx:TrackExtension>
        <gpxx:DisplayColor>Yellow</gpxx:DisplayColor>
      </gpxx:TrackExtension>
    </extensions>
    <trkseg>
      <trkpt lat="45.867341989651322" lon="7.642499199137092">
        <ele>1991.27</ele>
        <time>2019-01-16T07:51:43Z</time>
      </trkpt>
      <trkpt lat="45.867171501740813" lon="7.642593160271645">
        <ele>2025.1400000000001</ele>
        <time>2019-01-16T07:53:35Z</time>
      </trkpt>
      <trkpt lat="45.866987435147166" lon="7.642612522467971">
        <ele>2023.75</ele>
        <time>2019-01-16T07:54:21Z</time>
      </trkpt>
      <trkpt lat="45.866794483736157" lon="7.642626939341426">
        <ele>2030.6600000000001</ele>
        <time>2019-01-16T07:54:50Z</time>
      </trkpt>
      <trkpt lat="45.866613769903779" lon="7.642605314031243">
        <ele>2032.5699999999999</ele>
        <time>2019-01-16T07:55:08Z</time>
      </trkpt>
      <trkpt lat="45.866453759372234" lon="7.642459720373154">
        <ele>2030.99</ele>
        <time>2019-01-16T07:55:24Z</time>
      </trkpt>
      <trkpt lat="45.866389637812972" lon="7.642209269106388">
        <ele>2031.4000000000001</ele>
        <time>2019-01-16T07:55:40Z</time>
      </trkpt>
      <trkpt lat="45.866486029699445" lon="7.64199092052877">
        <ele>2032.5699999999999</ele>
        <time>2019-01-16T07:58:00Z</time>
      </trkpt>
      <trkpt lat="45.866306405514479" lon="7.641975162550807">
        <ele>2041.26</ele>
        <time>2019-01-16T07:59:17Z</time>
      </trkpt>
      <trkpt lat="45.866117896512151" lon="7.6419547945261">
        <ele>2049.3000000000002</ele>
        <time>2019-01-16T08:00:16Z</time>
      </trkpt>
      <trkpt lat="45.865970626473427" lon="7.642115307971835">
        <ele>2051.29</ele>
        <time>2019-01-16T08:00:45Z</time>
      </trkpt>
      <trkpt lat="45.865848585963249" lon="7.642313875257969">
        <ele>2060.0799999999999</ele>
        <time>2019-01-16T08:01:30Z</time>
      </trkpt>
      <trkpt lat="45.86583299562335" lon="7.642051689326763">
        <ele>2075.3299999999999</ele>
        <time>2019-01-16T08:02:39Z</time>
      </trkpt>
      <trkpt lat="45.865695113316178" lon="7.642222763970494">
        <ele>2088.0500000000002</ele>
        <time>2019-01-16T08:03:42Z</time>
      </trkpt>
      <trkpt lat="45.86558916606009" lon="7.642433987930417">
        <ele>2090.6399999999999</ele>
        <time>2019-01-16T08:04:06Z</time>
      </trkpt>
      <trkpt lat="45.865506688132882" lon="7.642663903534412">
        <ele>2092.1500000000001</ele>
        <time>2019-01-16T08:04:54Z</time>
      </trkpt>
      <trkpt lat="45.86562336422503" lon="7.642868170514703">
        <ele>2089.6599999999999</ele>
        <time>2019-01-16T08:05:20Z</time>
      </trkpt>
      <trkpt lat="45.865435525774956" lon="7.642829865217209">
        <ele>2090.3600000000001</ele>
        <time>2019-01-16T08:06:27Z</time>
      </trkpt>
      <trkpt lat="45.865261433646083" lon="7.642924496904016">
        <ele>2093.0599999999999</ele>
        <time>2019-01-16T08:06:42Z</time>
      </trkpt>
      <trkpt lat="45.865094466134906" lon="7.643059194087982">
        <ele>2095.4200000000001</ele>
        <time>2019-01-16T08:07:00Z</time>
      </trkpt>
      <trkpt lat="45.864951722323895" lon="7.643222389742732">
        <ele>2097.3600000000001</ele>
        <time>2019-01-16T08:07:14Z</time>
      </trkpt>
      <trkpt lat="45.864818533882499" lon="7.643409725278616">
        <ele>2099.27</ele>
        <time>2019-01-16T08:07:31Z</time>
      </trkpt>
      <trkpt lat="45.864756423979998" lon="7.643652381375432">
        <ele>2101.3600000000001</ele>
        <time>2019-01-16T08:07:47Z</time>
      </trkpt>
      <trkpt lat="45.864733876660466" lon="7.643910711631179">
        <ele>2100.3600000000001</ele>
        <time>2019-01-16T08:08:02Z</time>
      </trkpt>
      <trkpt lat="45.86464611813426" lon="7.644136436283588">
        <ele>2100.4499999999998</ele>
        <time>2019-01-16T08:08:20Z</time>
      </trkpt>
      <trkpt lat="45.864467164501548" lon="7.644166359677911">
        <ele>2101.3499999999999</ele>
        <time>2019-01-16T08:08:38Z</time>
      </trkpt>
      <trkpt lat="45.864388793706894" lon="7.644409015774727">
        <ele>2104.4200000000001</ele>
        <time>2019-01-16T08:09:36Z</time>
      </trkpt>
      <trkpt lat="45.864288881421089" lon="7.644625687971711">
        <ele>2106.3499999999999</ele>
        <time>2019-01-16T08:10:06Z</time>
      </trkpt>
      <trkpt lat="45.864218976348639" lon="7.644872786477208">
        <ele>2105.3800000000001</ele>
        <time>2019-01-16T08:10:38Z</time>
      </trkpt>
      <trkpt lat="45.864115795120597" lon="7.645086189731956">
        <ele>2103.4299999999998</ele>
        <time>2019-01-16T08:10:56Z</time>
      </trkpt>
      <trkpt lat="45.864027198404074" lon="7.645323481410742">
        <ele>2101.5700000000002</ele>
        <time>2019-01-16T08:11:12Z</time>
      </trkpt>
      <trkpt lat="45.863950001075864" lon="7.645572340115905">
        <ele>2102.3800000000001</ele>
        <time>2019-01-16T08:11:30Z</time>
      </trkpt>
      <trkpt lat="45.863903062418103" lon="7.645835615694523">
        <ele>2105.0599999999999</ele>
        <time>2019-01-16T08:11:48Z</time>
      </trkpt>
      <trkpt lat="45.863968692719936" lon="7.6460837200284">
        <ele>2106</ele>
        <time>2019-01-16T08:12:08Z</time>
      </trkpt>
      <trkpt lat="45.864050919190049" lon="7.646327130496502">
        <ele>2101.3600000000001</ele>
        <time>2019-01-16T08:12:30Z</time>
      </trkpt>
      <trkpt lat="45.863992916420102" lon="7.646578839048743">
        <ele>2098.0599999999999</ele>
        <time>2019-01-16T08:12:52Z</time>
      </trkpt>
      <trkpt lat="45.863831900060177" lon="7.64704336412251">
        <ele>2098.46</ele>
        <time>2019-01-16T08:13:24Z</time>
      </trkpt>
      <trkpt lat="45.863758223131299" lon="7.64728476293385">
        <ele>2109.6500000000001</ele>
        <time>2019-01-16T08:13:49Z</time>
      </trkpt>
      <trkpt lat="45.863631321117282" lon="7.647471427917481">
        <ele>2114.5599999999999</ele>
        <time>2019-01-16T08:14:12Z</time>
      </trkpt>
      <trkpt lat="45.863458570092916" lon="7.647580141201615">
        <ele>2116.1100000000001</ele>
        <time>2019-01-16T08:14:32Z</time>
      </trkpt>
      <trkpt lat="45.863287579268217" lon="7.647666307166219">
        <ele>2115.6599999999999</ele>
        <time>2019-01-16T08:15:00Z</time>
      </trkpt>
      <trkpt lat="45.863233432173729" lon="7.64791801571846">
        <ele>2109.4499999999998</ele>
        <time>2019-01-16T08:15:23Z</time>
      </trkpt>
      <trkpt lat="45.863263020291924" lon="7.648182716220617">
        <ele>2112.5700000000002</ele>
        <time>2019-01-16T08:15:52Z</time>
      </trkpt>
      <trkpt lat="45.863161683082581" lon="7.648402489721775">
        <ele>2126</ele>
        <time>2019-01-16T08:16:28Z</time>
      </trkpt>
      <trkpt lat="45.86307761259377" lon="7.64863676391542">
        <ele>2138.0500000000002</ele>
        <time>2019-01-16T08:16:51Z</time>
      </trkpt>
      <trkpt lat="45.863145003095269" lon="7.648876905441284">
        <ele>2137.29</ele>
        <time>2019-01-16T08:17:11Z</time>
      </trkpt>
      <trkpt lat="45.863121617585421" lon="7.649140013381839">
        <ele>2142.3299999999999</ele>
        <time>2019-01-16T08:17:34Z</time>
      </trkpt>
      <trkpt lat="45.863085323944688" lon="7.649395661428571">
        <ele>2146.4499999999998</ele>
        <time>2019-01-16T08:18:48Z</time>
      </trkpt>
      <trkpt lat="45.863031595945358" lon="7.649650974199176">
        <ele>2144.4499999999998</ele>
        <time>2019-01-16T08:19:18Z</time>
      </trkpt>
      <trkpt lat="45.862980466336012" lon="7.649905113503337">
        <ele>2139.79</ele>
        <time>2019-01-16T08:19:47Z</time>
      </trkpt>
      <trkpt lat="45.862944340333343" lon="7.650159504264593">
        <ele>2143.3200000000002</ele>
        <time>2019-01-16T08:20:06Z</time>
      </trkpt>
      <trkpt lat="45.862905196845531" lon="7.650413140654564">
        <ele>2142.27</ele>
        <time>2019-01-16T08:20:29Z</time>
      </trkpt>
      <trkpt lat="45.862900000065565" lon="7.650672560557723">
        <ele>2143.27</ele>
        <time>2019-01-16T08:20:52Z</time>
      </trkpt>
      <trkpt lat="45.862854989245534" lon="7.650927118957043">
        <ele>2149.0300000000002</ele>
        <time>2019-01-16T08:21:14Z</time>
      </trkpt>
      <trkpt lat="45.86281131953001" lon="7.651184527203441">
        <ele>2153.3299999999999</ele>
        <time>2019-01-16T08:21:40Z</time>
      </trkpt>
      <trkpt lat="45.862785000354052" lon="7.651450401172042">
        <ele>2158.27</ele>
        <time>2019-01-16T08:22:09Z</time>
      </trkpt>
      <trkpt lat="45.862752227112651" lon="7.651706133037806">
        <ele>2158.1399999999999</ele>
        <time>2019-01-16T08:22:37Z</time>
      </trkpt>
      <trkpt lat="45.862619625404477" lon="7.651880979537964">
        <ele>2166.3499999999999</ele>
        <time>2019-01-16T08:23:22Z</time>
      </trkpt>
      <trkpt lat="45.862551312893629" lon="7.652129167690873">
        <ele>2168.1300000000001</ele>
        <time>2019-01-16T08:25:32Z</time>
      </trkpt>
      <trkpt lat="45.862432038411498" lon="7.652328489348292">
        <ele>2176.0599999999999</ele>
        <time>2019-01-16T08:26:05Z</time>
      </trkpt>
      <trkpt lat="45.862315278500319" lon="7.652526469901204">
        <ele>2182.3499999999999</ele>
        <time>2019-01-16T08:27:00Z</time>
      </trkpt>
      <trkpt lat="45.862172367051244" lon="7.652688072994351">
        <ele>2187.3600000000001</ele>
        <time>2019-01-16T08:27:35Z</time>
      </trkpt>
      <trkpt lat="45.862024510279298" lon="7.652846239507198">
        <ele>2191.0599999999999</ele>
        <time>2019-01-16T08:28:19Z</time>
      </trkpt>
      <trkpt lat="45.861926525831223" lon="7.653064001351595">
        <ele>2202.3800000000001</ele>
        <time>2019-01-16T08:29:38Z</time>
      </trkpt>
      <trkpt lat="45.861789984628558" lon="7.653243374079466">
        <ele>2211.1399999999999</ele>
        <time>2019-01-16T08:30:54Z</time>
      </trkpt>
      <trkpt lat="45.86169526912272" lon="7.653466416522861">
        <ele>2216.0599999999999</ele>
        <time>2019-01-16T08:32:30Z</time>
      </trkpt>
      <trkpt lat="45.8615926746279" lon="7.653678897768259">
        <ele>2225.3600000000001</ele>
        <time>2019-01-16T08:34:04Z</time>
      </trkpt>
      <trkpt lat="45.861436519771814" lon="7.653816025704145">
        <ele>2234.4200000000001</ele>
        <time>2019-01-16T08:35:13Z</time>
      </trkpt>
      <trkpt lat="45.861417995765805" lon="7.654076619073749">
        <ele>2243.54</ele>
        <time>2019-01-16T08:36:06Z</time>
      </trkpt>
      <trkpt lat="45.861313724890351" lon="7.654291028156877">
        <ele>2258.23</ele>
        <time>2019-01-16T08:37:16Z</time>
      </trkpt>
      <trkpt lat="45.861394023522735" lon="7.654533600434661">
        <ele>2268.0599999999999</ele>
        <time>2019-01-16T08:38:20Z</time>
      </trkpt>
      <trkpt lat="45.861288076266646" lon="7.654751865193248">
        <ele>2277.3600000000001</ele>
        <time>2019-01-16T08:39:07Z</time>
      </trkpt>
      <trkpt lat="45.861107278615236" lon="7.654731413349509">
        <ele>2280.3400000000001</ele>
        <time>2019-01-16T08:39:42Z</time>
      </trkpt>
      <trkpt lat="45.860927235335112" lon="7.65469579026103">
        <ele>2289.0500000000002</ele>
        <time>2019-01-16T08:40:16Z</time>
      </trkpt>
      <trkpt lat="45.860750041902065" lon="7.654642229899764">
        <ele>2297.6599999999999</ele>
        <time>2019-01-16T08:45:26Z</time>
      </trkpt>
      <trkpt lat="45.860569914802909" lon="7.654683636501432">
        <ele>2301.27</ele>
        <time>2019-01-16T08:45:48Z</time>
      </trkpt>
      <trkpt lat="45.86038526147604" lon="7.654721438884735">
        <ele>2305.0599999999999</ele>
        <time>2019-01-16T08:46:23Z</time>
      </trkpt>
      <trkpt lat="45.860218713060021" lon="7.65482671558857">
        <ele>2309.3299999999999</ele>
        <time>2019-01-16T08:47:35Z</time>
      </trkpt>
      <trkpt lat="45.860030371695757" lon="7.654825625941157">
        <ele>2304.25</ele>
        <time>2019-01-16T08:47:58Z</time>
      </trkpt>
      <trkpt lat="45.859853764995933" lon="7.654897961765528">
        <ele>2308.2800000000002</ele>
        <time>2019-01-16T08:48:21Z</time>
      </trkpt>
      <trkpt lat="45.85967380553484" lon="7.654973231256008">
        <ele>2315.0500000000002</ele>
        <time>2019-01-16T08:50:05Z</time>
      </trkpt>
      <trkpt lat="45.859495606273413" lon="7.654906008392572">
        <ele>2321.2600000000002</ele>
        <time>2019-01-16T08:50:31Z</time>
      </trkpt>
      <trkpt lat="45.859366273507476" lon="7.654725378379226">
        <ele>2321.0599999999999</ele>
        <time>2019-01-16T08:51:30Z</time>
      </trkpt>
      <trkpt lat="45.859257224947214" lon="7.654500994831324">
        <ele>2320.5799999999999</ele>
        <time>2019-01-16T08:51:47Z</time>
      </trkpt>
      <trkpt lat="45.859135771170259" lon="7.654289016500115">
        <ele>2320.4200000000001</ele>
        <time>2019-01-16T08:52:04Z</time>
      </trkpt>
      <trkpt lat="45.859019514173269" lon="7.654087767004967">
        <ele>2318.5599999999999</ele>
        <time>2019-01-16T08:52:22Z</time>
      </trkpt>
      <trkpt lat="45.858889929950237" lon="7.653894396498799">
        <ele>2320.0599999999999</ele>
        <time>2019-01-16T08:52:38Z</time>
      </trkpt>
      <trkpt lat="45.858758417889476" lon="7.653693230822682">
        <ele>2309.77</ele>
        <time>2019-01-16T08:52:56Z</time>
      </trkpt>
      <trkpt lat="45.858649369329214" lon="7.653485275804997">
        <ele>2310.0599999999999</ele>
        <time>2019-01-16T08:53:18Z</time>
      </trkpt>
      <trkpt lat="45.858525233343244" lon="7.653266927227378">
        <ele>2302.6900000000001</ele>
        <time>2019-01-16T08:53:36Z</time>
      </trkpt>
      <trkpt lat="45.858374023810029" lon="7.653116974979639">
        <ele>2298.7399999999998</ele>
        <time>2019-01-16T08:53:54Z</time>
      </trkpt>
      <trkpt lat="45.858242679387331" lon="7.652923436835408">
        <ele>2294.3600000000001</ele>
        <time>2019-01-16T08:54:14Z</time>
      </trkpt>
      <trkpt lat="45.85812390781939" lon="7.652724366635084">
        <ele>2295.3499999999999</ele>
        <time>2019-01-16T08:56:12Z</time>
      </trkpt>
      <trkpt lat="45.85803153924644" lon="7.652499983087182">
        <ele>2291.6900000000001</ele>
        <time>2019-01-16T08:56:33Z</time>
      </trkpt>
      <trkpt lat="45.85794311016798" lon="7.652273336425424">
        <ele>2289.3600000000001</ele>
        <time>2019-01-16T08:56:52Z</time>
      </trkpt>
      <trkpt lat="45.857880413532257" lon="7.6520224660635">
        <ele>2292.1399999999999</ele>
        <time>2019-01-16T08:57:13Z</time>
      </trkpt>
      <trkpt lat="45.857760217040777" lon="7.651820294559002">
        <ele>2289.3600000000001</ele>
        <time>2019-01-16T08:57:33Z</time>
      </trkpt>
      <trkpt lat="45.857497025281191" lon="7.651947867125273">
        <ele>2286.3600000000001</ele>
        <time>2019-01-16T08:58:02Z</time>
      </trkpt>
      <trkpt lat="45.857514878734946" lon="7.651683920994401">
        <ele>2288.3299999999999</ele>
        <time>2019-01-16T08:58:18Z</time>
      </trkpt>
      <trkpt lat="45.85743248462677" lon="7.651446713134646">
        <ele>2286.5700000000002</ele>
        <time>2019-01-16T08:58:35Z</time>
      </trkpt>
      <trkpt lat="45.857329471036792" lon="7.651232220232487">
        <ele>2288.0300000000002</ele>
        <time>2019-01-16T08:58:55Z</time>
      </trkpt>
      <trkpt lat="45.857231570407748" lon="7.650984367355704">
        <ele>2282.7600000000002</ele>
        <time>2019-01-16T08:59:27Z</time>
      </trkpt>
      <trkpt lat="45.857094777747989" lon="7.650814633816481">
        <ele>2279.1199999999999</ele>
        <time>2019-01-16T08:59:58Z</time>
      </trkpt>
      <trkpt lat="45.856959074735641" lon="7.650620928034186">
        <ele>2279.46</ele>
        <time>2019-01-16T09:00:19Z</time>
      </trkpt>
      <trkpt lat="45.856784898787737" lon="7.650512969121337">
        <ele>2291.27</ele>
        <time>2019-01-16T09:00:50Z</time>
      </trkpt>
      <trkpt lat="45.856779115274549" lon="7.650233097374439">
        <ele>2299.23</ele>
        <time>2019-01-16T09:01:36Z</time>
      </trkpt>
      <trkpt lat="45.856768889352679" lon="7.649974515661597">
        <ele>2304.3499999999999</ele>
        <time>2019-01-16T09:02:33Z</time>
      </trkpt>
      <trkpt lat="45.856943400576711" lon="7.649902515113354">
        <ele>2304.1399999999999</ele>
        <time>2019-01-16T09:03:25Z</time>
      </trkpt>
      <trkpt lat="45.857109278440475" lon="7.649781899526715">
        <ele>2303.0599999999999</ele>
        <time>2019-01-16T09:03:45Z</time>
      </trkpt>
      <trkpt lat="45.857239030301571" lon="7.649591881781817">
        <ele>2297.6599999999999</ele>
        <time>2019-01-16T09:04:08Z</time>
      </trkpt>
      <trkpt lat="45.857321927323937" lon="7.649354003369808">
        <ele>2299.3600000000001</ele>
        <time>2019-01-16T09:04:40Z</time>
      </trkpt>
      <trkpt lat="45.857423432171345" lon="7.649139761924744">
        <ele>2302.3600000000001</ele>
        <time>2019-01-16T09:05:07Z</time>
      </trkpt>
      <trkpt lat="45.857524601742625" lon="7.648922502994537">
        <ele>2300.6599999999999</ele>
        <time>2019-01-16T09:05:50Z</time>
      </trkpt>
      <trkpt lat="45.857629207894206" lon="7.64870080165565">
        <ele>2295.4499999999998</ele>
        <time>2019-01-16T09:06:27Z</time>
      </trkpt>
      <trkpt lat="45.857708919793367" lon="7.648466611281037">
        <ele>2294.27</ele>
        <time>2019-01-16T09:07:00Z</time>
      </trkpt>
      <trkpt lat="45.85772710852325" lon="7.648202162235975">
        <ele>2297.3600000000001</ele>
        <time>2019-01-16T09:07:29Z</time>
      </trkpt>
      <trkpt lat="45.857717385515571" lon="7.647937713190913">
        <ele>2296.0799999999999</ele>
        <time>2019-01-16T09:07:56Z</time>
      </trkpt>
      <trkpt lat="45.857711182907224" lon="7.647675694897771">
        <ele>2294.3600000000001</ele>
        <time>2019-01-16T09:08:26Z</time>
      </trkpt>
      <trkpt lat="45.857729287818074" lon="7.64741568826139">
        <ele>2286.6500000000001</ele>
        <time>2019-01-16T09:09:01Z</time>
      </trkpt>
      <trkpt lat="45.857769940048456" lon="7.64716163277626">
        <ele>2288.3499999999999</ele>
        <time>2019-01-16T09:09:30Z</time>
      </trkpt>
      <trkpt lat="45.857649659737945" lon="7.646958287805319">
        <ele>2289.0300000000002</ele>
        <time>2019-01-16T09:10:37Z</time>
      </trkpt>
      <trkpt lat="45.857508592307568" lon="7.646789224818349">
        <ele>2301.2399999999998</ele>
        <time>2019-01-16T09:11:56Z</time>
      </trkpt>
      <trkpt lat="45.857373140752316" lon="7.646608259528875">
        <ele>2310.0700000000002</ele>
        <time>2019-01-16T09:12:51Z</time>
      </trkpt>
      <trkpt lat="45.857256967574358" lon="7.646398795768619">
        <ele>2315.3600000000001</ele>
        <time>2019-01-16T09:13:36Z</time>
      </trkpt>
      <trkpt lat="45.857075331732631" lon="7.646404327824712">
        <ele>2314.3800000000001</ele>
        <time>2019-01-16T09:14:14Z</time>
      </trkpt>
      <trkpt lat="45.856898222118616" lon="7.646452272310853">
        <ele>2318.2600000000002</ele>
        <time>2019-01-16T09:14:45Z</time>
      </trkpt>
      <trkpt lat="45.85671809501946" lon="7.646447075530887">
        <ele>2326.1199999999999</ele>
        <time>2019-01-16T09:15:29Z</time>
      </trkpt>
      <trkpt lat="45.856648692861199" lon="7.646689480170608">
        <ele>2330.0599999999999</ele>
        <time>2019-01-16T09:16:18Z</time>
      </trkpt>
      <trkpt lat="45.856502931565046" lon="7.646854938939214">
        <ele>2341.27</ele>
        <time>2019-01-16T09:17:07Z</time>
      </trkpt>
      <trkpt lat="45.856356332078576" lon="7.646694593131542">
        <ele>2347.3499999999999</ele>
        <time>2019-01-16T09:17:47Z</time>
      </trkpt>
      <trkpt lat="45.856223478913307" lon="7.646520333364606">
        <ele>2349.4200000000001</ele>
        <time>2019-01-16T09:18:20Z</time>
      </trkpt>
      <trkpt lat="45.856096493080258" lon="7.646311121061444">
        <ele>2353.0599999999999</ele>
        <time>2019-01-16T09:18:46Z</time>
      </trkpt>
      <trkpt lat="45.855911504477262" lon="7.646306678652763">
        <ele>2355.3600000000001</ele>
        <time>2019-01-16T09:19:13Z</time>
      </trkpt>
      <trkpt lat="45.855729700997472" lon="7.646335428580642">
        <ele>2360.3499999999999</ele>
        <time>2019-01-16T09:19:41Z</time>
      </trkpt>
      <trkpt lat="45.85554881952703" lon="7.64637591317296">
        <ele>2364.4699999999998</ele>
        <time>2019-01-16T09:20:15Z</time>
      </trkpt>
      <trkpt lat="45.855367435142398" lon="7.64634707942605">
        <ele>2371.2399999999998</ele>
        <time>2019-01-16T09:20:38Z</time>
      </trkpt>
      <trkpt lat="45.855191498994827" lon="7.646407429128885">
        <ele>2373.3800000000001</ele>
        <time>2019-01-16T09:21:09Z</time>
      </trkpt>
      <trkpt lat="45.855037104338408" lon="7.646542964503169">
        <ele>2375.27</ele>
        <time>2019-01-16T09:21:34Z</time>
      </trkpt>
      <trkpt lat="45.854970468208194" lon="7.646784363314509">
        <ele>2370.4200000000001</ele>
        <time>2019-01-16T09:22:06Z</time>
      </trkpt>
      <trkpt lat="45.854924116283655" lon="7.647040514275432">
        <ele>2371.3499999999999</ele>
        <time>2019-01-16T09:22:31Z</time>
      </trkpt>
      <trkpt lat="45.854908861219883" lon="7.647301107645035">
        <ele>2373.3600000000001</ele>
        <time>2019-01-16T09:23:02Z</time>
      </trkpt>
      <trkpt lat="45.854954123497009" lon="7.647554324939847">
        <ele>2382.2600000000002</ele>
        <time>2019-01-16T09:24:25Z</time>
      </trkpt>
      <trkpt lat="45.85477776825428" lon="7.647496992722154">
        <ele>2388.3499999999999</ele>
        <time>2019-01-16T09:25:04Z</time>
      </trkpt>
      <trkpt lat="45.854637203738093" lon="7.647328516468406">
        <ele>2394.4499999999998</ele>
        <time>2019-01-16T09:25:37Z</time>
      </trkpt>
      <trkpt lat="45.854458836838603" lon="7.647365732118487">
        <ele>2396.3600000000001</ele>
        <time>2019-01-16T09:26:17Z</time>
      </trkpt>
      <trkpt lat="45.85437661036849" lon="7.647596737369895">
        <ele>2396.0500000000002</ele>
        <time>2019-01-16T09:26:45Z</time>
      </trkpt>
      <trkpt lat="45.854277033358812" lon="7.647823300212622">
        <ele>2405.0300000000002</ele>
        <time>2019-01-16T09:27:21Z</time>
      </trkpt>
      <trkpt lat="45.854198327288032" lon="7.648059837520123">
        <ele>2413.6300000000001</ele>
        <time>2019-01-16T09:27:52Z</time>
      </trkpt>
      <trkpt lat="45.854118699207902" lon="7.648300901055336">
        <ele>2416.3600000000001</ele>
        <time>2019-01-16T09:28:23Z</time>
      </trkpt>
      <trkpt lat="45.853992635384202" lon="7.648491086438298">
        <ele>2419.6500000000001</ele>
        <time>2019-01-16T09:28:49Z</time>
      </trkpt>
      <trkpt lat="45.853876797482371" lon="7.648695269599557">
        <ele>2428.7600000000002</ele>
        <time>2019-01-16T09:33:26Z</time>
      </trkpt>
      <trkpt lat="45.853759534657001" lon="7.648894591256976">
        <ele>2434.0500000000002</ele>
        <time>2019-01-16T09:33:51Z</time>
      </trkpt>
      <trkpt lat="45.853627435863018" lon="7.649073377251625">
        <ele>2433.29</ele>
        <time>2019-01-16T09:34:23Z</time>
      </trkpt>
      <trkpt lat="45.853476393967867" lon="7.649218467995524">
        <ele>2438.3499999999999</ele>
        <time>2019-01-16T09:35:10Z</time>
      </trkpt>
      <trkpt lat="45.853398693725467" lon="7.649451568722725">
        <ele>2445.96</ele>
        <time>2019-01-16T09:35:54Z</time>
      </trkpt>
      <trkpt lat="45.853250501677394" lon="7.649602862074971">
        <ele>2449.2600000000002</ele>
        <time>2019-01-16T09:36:29Z</time>
      </trkpt>
      <trkpt lat="45.853168526664376" lon="7.649838896468282">
        <ele>2454.3499999999999</ele>
        <time>2019-01-16T09:37:09Z</time>
      </trkpt>
      <trkpt lat="45.853122007101774" lon="7.650091107934713">
        <ele>2459.2600000000002</ele>
        <time>2019-01-16T09:37:43Z</time>
      </trkpt>
      <trkpt lat="45.852937437593937" lon="7.650124887004495">
        <ele>2464.3600000000001</ele>
        <time>2019-01-16T09:38:19Z</time>
      </trkpt>
      <trkpt lat="45.852750521153212" lon="7.650110889226198">
        <ele>2468.3499999999999</ele>
        <time>2019-01-16T09:38:49Z</time>
      </trkpt>
      <trkpt lat="45.852566622197628" lon="7.650086330249906">
        <ele>2474.0599999999999</ele>
        <time>2019-01-16T09:39:21Z</time>
      </trkpt>
      <trkpt lat="45.85238590836525" lon="7.650151876732707">
        <ele>2480.3499999999999</ele>
        <time>2019-01-16T09:39:58Z</time>
      </trkpt>
      <trkpt lat="45.852205697447062" lon="7.650198480114341">
        <ele>2488.3299999999999</ele>
        <time>2019-01-16T09:40:38Z</time>
      </trkpt>
      <trkpt lat="45.852031772956252" lon="7.650106614455581">
        <ele>2495.3299999999999</ele>
        <time>2019-01-16T09:41:16Z</time>
      </trkpt>
      <trkpt lat="45.851852400228381" lon="7.650066297501326">
        <ele>2500.3600000000001</ele>
        <time>2019-01-16T09:41:57Z</time>
      </trkpt>
      <trkpt lat="45.851674368605018" lon="7.650007288902998">
        <ele>2507.3499999999999</ele>
        <time>2019-01-16T09:42:28Z</time>
      </trkpt>
      <trkpt lat="45.851494325324893" lon="7.650013407692313">
        <ele>2511.3299999999999</ele>
        <time>2019-01-16T09:43:06Z</time>
      </trkpt>
      <trkpt lat="45.851321574300528" lon="7.650104099884629">
        <ele>2515.1500000000001</ele>
        <time>2019-01-16T09:43:39Z</time>
      </trkpt>
      <trkpt lat="45.851137675344944" lon="7.650109715759754">
        <ele>2521.27</ele>
        <time>2019-01-16T09:44:15Z</time>
      </trkpt>
      <trkpt lat="45.850953022018075" lon="7.65013393945992">
        <ele>2528.1500000000001</ele>
        <time>2019-01-16T09:44:51Z</time>
      </trkpt>
      <trkpt lat="45.850813714787364" lon="7.650308785960078">
        <ele>2532.3800000000001</ele>
        <time>2019-01-16T09:49:05Z</time>
      </trkpt>
      <trkpt lat="45.850685890763998" lon="7.650492014363408">
        <ele>2533.4499999999998</ele>
        <time>2019-01-16T09:49:33Z</time>
      </trkpt>
      <trkpt lat="45.850648507475853" lon="7.650747913867235">
        <ele>2545.27</ele>
        <time>2019-01-16T09:55:00Z</time>
      </trkpt>
      <trkpt lat="45.850622020661831" lon="7.651004483923316">
        <ele>2547.29</ele>
        <time>2019-01-16T09:56:24Z</time>
      </trkpt>
      <trkpt lat="45.850714137777686" lon="7.651239177212119">
        <ele>2553.1300000000001</ele>
        <time>2019-01-16T09:56:54Z</time>
      </trkpt>
      <trkpt lat="45.850726123899221" lon="7.651502788066864">
        <ele>2555.5799999999999</ele>
        <time>2019-01-16T09:57:25Z</time>
      </trkpt>
      <trkpt lat="45.85070600733161" lon="7.651766482740641">
        <ele>2563.2600000000002</ele>
        <time>2019-01-16T09:57:48Z</time>
      </trkpt>
      <trkpt lat="45.850754706189036" lon="7.652031518518925">
        <ele>2567.0599999999999</ele>
        <time>2019-01-16T09:58:15Z</time>
      </trkpt>
      <trkpt lat="45.850803824141622" lon="7.652282388880849">
        <ele>2573.3499999999999</ele>
        <time>2019-01-16T09:58:45Z</time>
      </trkpt>
      <trkpt lat="45.850957632064819" lon="7.652429910376668">
        <ele>2584.6599999999999</ele>
        <time>2019-01-16T09:59:58Z</time>
      </trkpt>
      <trkpt lat="45.85109886713326" lon="7.652589920908213">
        <ele>2582.3499999999999</ele>
        <time>2019-01-16T10:01:18Z</time>
      </trkpt>
      <trkpt lat="45.851043881848454" lon="7.652839114889503">
        <ele>2607.3299999999999</ele>
        <time>2019-01-16T10:03:54Z</time>
      </trkpt>
      <trkpt lat="45.85119467228651" lon="7.65298169106245">
        <ele>2613.3499999999999</ele>
        <time>2019-01-16T10:07:36Z</time>
      </trkpt>
      <trkpt lat="45.85123959928751" lon="7.653239937499166">
        <ele>2621.27</ele>
        <time>2019-01-16T10:08:19Z</time>
      </trkpt>
      <trkpt lat="45.851361220702529" lon="7.653435403481126">
        <ele>2628.27</ele>
        <time>2019-01-16T10:10:58Z</time>
      </trkpt>
      <trkpt lat="45.851513519883156" lon="7.653573704883456">
        <ele>2646.4499999999998</ele>
        <time>2019-01-16T10:12:32Z</time>
      </trkpt>
      <trkpt lat="45.851647881790996" lon="7.653748383745551">
        <ele>2654.2800000000002</ele>
        <time>2019-01-16T10:13:51Z</time>
      </trkpt>
      <trkpt lat="45.851674117147923" lon="7.654008138924837">
        <ele>2669.3299999999999</ele>
        <time>2019-01-16T10:14:35Z</time>
      </trkpt>
      <trkpt lat="45.851826835423708" lon="7.654158677905798">
        <ele>2678.27</ele>
        <time>2019-01-16T10:16:26Z</time>
      </trkpt>
      <trkpt lat="45.851881317794323" lon="7.654406195506454">
        <ele>2686.6300000000001</ele>
        <time>2019-01-16T10:17:04Z</time>
      </trkpt>
      <trkpt lat="45.851944936439395" lon="7.654648600146174">
        <ele>2690.3499999999999</ele>
        <time>2019-01-16T10:31:45Z</time>
      </trkpt>
      <trkpt lat="45.851902021095157" lon="7.654914474114776">
        <ele>2693.4299999999998</ele>
        <time>2019-01-16T10:32:21Z</time>
      </trkpt>
      <trkpt lat="45.85186212323606" lon="7.655168110504746">
        <ele>2699.0500000000002</ele>
        <time>2019-01-16T10:32:59Z</time>
      </trkpt>
      <trkpt lat="45.851880395784974" lon="7.655436163768172">
        <ele>2701.5599999999999</ele>
        <time>2019-01-16T10:34:24Z</time>
      </trkpt>
      <trkpt lat="45.851913588121533" lon="7.655691811814904">
        <ele>2715.0500000000002</ele>
        <time>2019-01-16T10:35:50Z</time>
      </trkpt>
      <trkpt lat="45.851912833750248" lon="7.655954416841269">
        <ele>2719.3600000000001</ele>
        <time>2019-01-16T10:37:03Z</time>
      </trkpt>
      <trkpt lat="45.851844185963273" lon="7.656198162585497">
        <ele>2723.3600000000001</ele>
        <time>2019-01-16T10:38:43Z</time>
      </trkpt>
      <trkpt lat="45.851922808215022" lon="7.656431011855602">
        <ele>2740.0300000000002</ele>
        <time>2019-01-16T10:42:12Z</time>
      </trkpt>
      <trkpt lat="45.851876959204674" lon="7.656681630760431">
        <ele>2754.3800000000001</ele>
        <time>2019-01-16T10:44:31Z</time>
      </trkpt>
      <trkpt lat="45.851843096315861" lon="7.656935267150402">
        <ele>2769.3499999999999</ele>
        <time>2019-01-16T10:47:21Z</time>
      </trkpt>
      <trkpt lat="45.851874696090817" lon="7.656680960208178">
        <ele>2756.3499999999999</ele>
        <time>2019-01-16T11:03:32Z</time>
      </trkpt>
      <trkpt lat="45.851937728002667" lon="7.656436879187822">
        <ele>2738.6599999999999</ele>
        <time>2019-01-16T11:07:14Z</time>
      </trkpt>
      <trkpt lat="45.851949797943234" lon="7.656177375465632">
        <ele>2733.3600000000001</ele>
        <time>2019-01-16T11:08:46Z</time>
      </trkpt>
      <trkpt lat="45.851949295029044" lon="7.655919129028916">
        <ele>2715.4499999999998</ele>
        <time>2019-01-16T11:11:14Z</time>
      </trkpt>
      <trkpt lat="45.851948959752917" lon="7.655659541487694">
        <ele>2709.3800000000001</ele>
        <time>2019-01-16T11:12:04Z</time>
      </trkpt>
      <trkpt lat="45.851895986124873" lon="7.655403390526772">
        <ele>2700.0599999999999</ele>
        <time>2019-01-16T11:13:52Z</time>
      </trkpt>
      <trkpt lat="45.851923981681466" lon="7.655139863491058">
        <ele>2697.3600000000001</ele>
        <time>2019-01-16T11:14:18Z</time>
      </trkpt>
      <trkpt lat="45.851959018036723" lon="7.654882203787565">
        <ele>2694.6599999999999</ele>
        <time>2019-01-16T11:14:42Z</time>
      </trkpt>
      <trkpt lat="45.851965472102165" lon="7.654623035341501">
        <ele>2686.3800000000001</ele>
        <time>2019-01-16T11:15:18Z</time>
      </trkpt>
      <trkpt lat="45.851899674162269" lon="7.654379205778241">
        <ele>2680.6599999999999</ele>
        <time>2019-01-16T11:20:41Z</time>
      </trkpt>
      <trkpt lat="45.851833121851087" lon="7.654129508882761">
        <ele>2677.3600000000001</ele>
        <time>2019-01-16T11:21:15Z</time>
      </trkpt>
      <trkpt lat="45.851701777428389" lon="7.65395063906908">
        <ele>2670.4499999999998</ele>
        <time>2019-01-16T11:21:52Z</time>
      </trkpt>
      <trkpt lat="45.85157772526145" lon="7.653756681829691">
        <ele>2658.6599999999999</ele>
        <time>2019-01-16T11:22:37Z</time>
      </trkpt>
      <trkpt lat="45.851457361131907" lon="7.653560293838382">
        <ele>2647.3600000000001</ele>
        <time>2019-01-16T11:23:21Z</time>
      </trkpt>
      <trkpt lat="45.851335823535919" lon="7.653362983837724">
        <ele>2636.3800000000001</ele>
        <time>2019-01-16T11:23:58Z</time>
      </trkpt>
      <trkpt lat="45.851264158263803" lon="7.653115801513195">
        <ele>2620.3800000000001</ele>
        <time>2019-01-16T11:24:36Z</time>
      </trkpt>
      <trkpt lat="45.851202383637428" lon="7.652869373559952">
        <ele>2610.4499999999998</ele>
        <time>2019-01-16T11:25:23Z</time>
      </trkpt>
      <trkpt lat="45.851191906258464" lon="7.652608025819063">
        <ele>2593.4499999999998</ele>
        <time>2019-01-16T11:27:12Z</time>
      </trkpt>
      <trkpt lat="45.851038517430425" lon="7.652468886226416">
        <ele>2584.3800000000001</ele>
        <time>2019-01-16T11:27:39Z</time>
      </trkpt>
      <trkpt lat="45.85089560598135" lon="7.652307618409395">
        <ele>2578.6799999999998</ele>
        <time>2019-01-16T11:28:00Z</time>
      </trkpt>
      <trkpt lat="45.850779600441456" lon="7.652107374742627">
        <ele>2571.3800000000001</ele>
        <time>2019-01-16T11:34:40Z</time>
      </trkpt>
      <trkpt lat="45.850831903517246" lon="7.651858013123274">
        <ele>2567.6599999999999</ele>
        <time>2019-01-16T11:39:17Z</time>
      </trkpt>
      <trkpt lat="45.850793262943625" lon="7.651594234630466">
        <ele>2562.4499999999998</ele>
        <time>2019-01-16T11:39:38Z</time>
      </trkpt>
      <trkpt lat="45.850732661783695" lon="7.651345459744334">
        <ele>2557.4499999999998</ele>
        <time>2019-01-16T11:39:56Z</time>
      </trkpt>
      <trkpt lat="45.850737858563662" lon="7.651085704565048">
        <ele>2552.6900000000001</ele>
        <time>2019-01-16T11:40:14Z</time>
      </trkpt>
      <trkpt lat="45.850694524124265" lon="7.650833828374744">
        <ele>2550.3499999999999</ele>
        <time>2019-01-16T11:40:29Z</time>
      </trkpt>
      <trkpt lat="45.850697373971343" lon="7.650574073195458">
        <ele>2545.4499999999998</ele>
        <time>2019-01-16T11:40:49Z</time>
      </trkpt>
      <trkpt lat="45.850803405046463" lon="7.650363938882947">
        <ele>2541.4499999999998</ele>
        <time>2019-01-16T11:41:10Z</time>
      </trkpt>
      <trkpt lat="45.850853864103556" lon="7.650108374655247">
        <ele>2535.3800000000001</ele>
        <time>2019-01-16T11:41:31Z</time>
      </trkpt>
      <trkpt lat="45.850849924609065" lon="7.649843422695994">
        <ele>2529.3699999999999</ele>
        <time>2019-01-16T11:41:51Z</time>
      </trkpt>
      <trkpt lat="45.850882614031434" lon="7.649579225108028">
        <ele>2526.73</ele>
        <time>2019-01-16T11:42:08Z</time>
      </trkpt>
      <trkpt lat="45.850949920713902" lon="7.649327097460628">
        <ele>2523.3600000000001</ele>
        <time>2019-01-16T11:42:30Z</time>
      </trkpt>
      <trkpt lat="45.85104756988585" lon="7.649099780246615">
        <ele>2524.3499999999999</ele>
        <time>2019-01-16T11:42:51Z</time>
      </trkpt>
      <trkpt lat="45.851106913760304" lon="7.64885469339788">
        <ele>2525.3600000000001</ele>
        <time>2019-01-16T11:43:12Z</time>
      </trkpt>
      <trkpt lat="45.851134741678834" lon="7.648590411990881">
        <ele>2526.5700000000002</ele>
        <time>2019-01-16T11:43:32Z</time>
      </trkpt>
      <trkpt lat="45.851186290383339" lon="7.648338032886386">
        <ele>2527.3600000000001</ele>
        <time>2019-01-16T11:43:59Z</time>
      </trkpt>
      <trkpt lat="45.851261727511883" lon="7.648101914674044">
        <ele>2529.3400000000001</ele>
        <time>2019-01-16T11:44:29Z</time>
      </trkpt>
      <trkpt lat="45.85127430036664" lon="7.647831430658698">
        <ele>2533.0599999999999</ele>
        <time>2019-01-16T11:45:17Z</time>
      </trkpt>
      <trkpt lat="45.851213028654456" lon="7.647585421800613">
        <ele>2535.21</ele>
        <time>2019-01-16T11:46:51Z</time>
      </trkpt>
      <trkpt lat="45.851217722520232" lon="7.647319799289107">
        <ele>2529.3600000000001</ele>
        <time>2019-01-16T11:47:11Z</time>
      </trkpt>
      <trkpt lat="45.851236078888178" lon="7.647049399092794">
        <ele>2530.2800000000002</ele>
        <time>2019-01-16T11:47:28Z</time>
      </trkpt>
      <trkpt lat="45.851212525740266" lon="7.646783441305161">
        <ele>2531.46</ele>
        <time>2019-01-16T11:47:45Z</time>
      </trkpt>
      <trkpt lat="45.851183608174324" lon="7.646520333364606">
        <ele>2517.1599999999999</ele>
        <time>2019-01-16T11:52:57Z</time>
      </trkpt>
      <trkpt lat="45.85130263119936" lon="7.646309863775969">
        <ele>2520.3699999999999</ele>
        <time>2019-01-16T12:25:11Z</time>
      </trkpt>
      <trkpt lat="45.851391395553946" lon="7.646076260134578">
        <ele>2518.4499999999998</ele>
        <time>2019-01-16T12:25:30Z</time>
      </trkpt>
      <trkpt lat="45.85148342885077" lon="7.645850786939263">
        <ele>2516.4499999999998</ele>
        <time>2019-01-16T12:25:49Z</time>
      </trkpt>
      <trkpt lat="45.851580491289496" lon="7.645615674555302">
        <ele>2516.3600000000001</ele>
        <time>2019-01-16T12:26:08Z</time>
      </trkpt>
      <trkpt lat="45.851672105491161" lon="7.645377796143293">
        <ele>2510.3899999999999</ele>
        <time>2019-01-16T12:26:31Z</time>
      </trkpt>
      <trkpt lat="45.851797498762608" lon="7.645185766741633">
        <ele>2506.4200000000001</ele>
        <time>2019-01-16T12:26:54Z</time>
      </trkpt>
      <trkpt lat="45.851942505687475" lon="7.645029108971357">
        <ele>2502.3600000000001</ele>
        <time>2019-01-16T12:27:16Z</time>
      </trkpt>
      <trkpt lat="45.852051973342896" lon="7.644811766222119">
        <ele>2498.3600000000001</ele>
        <time>2019-01-16T12:27:34Z</time>
      </trkpt>
      <trkpt lat="45.852107964456081" lon="7.644560392946005">
        <ele>2495.3600000000001</ele>
        <time>2019-01-16T12:27:51Z</time>
      </trkpt>
      <trkpt lat="45.852177869528532" lon="7.644321592524648">
        <ele>2492.3800000000001</ele>
        <time>2019-01-16T12:28:09Z</time>
      </trkpt>
      <trkpt lat="45.852231262251735" lon="7.644062172621489">
        <ele>2491.4499999999998</ele>
        <time>2019-01-16T12:28:27Z</time>
      </trkpt>
      <trkpt lat="45.852281469851732" lon="7.643811469897628">
        <ele>2491.3800000000001</ele>
        <time>2019-01-16T12:28:43Z</time>
      </trkpt>
      <trkpt lat="45.852372664958239" lon="7.643587673082948">
        <ele>2490.4200000000001</ele>
        <time>2019-01-16T12:29:00Z</time>
      </trkpt>
      <trkpt lat="45.852469895035028" lon="7.643365385010839">
        <ele>2490.3600000000001</ele>
        <time>2019-01-16T12:29:17Z</time>
      </trkpt>
      <trkpt lat="45.852547511458397" lon="7.643131697550416">
        <ele>2489.3600000000001</ele>
        <time>2019-01-16T12:29:33Z</time>
      </trkpt>
      <trkpt lat="45.852626971900463" lon="7.642888370901346">
        <ele>2486.6599999999999</ele>
        <time>2019-01-16T12:29:51Z</time>
      </trkpt>
      <trkpt lat="45.852749515324831" lon="7.64268921688199">
        <ele>2486.3600000000001</ele>
        <time>2019-01-16T12:30:07Z</time>
      </trkpt>
      <trkpt lat="45.852898713201284" lon="7.64252501539886">
        <ele>2484.3499999999999</ele>
        <time>2019-01-16T12:30:25Z</time>
      </trkpt>
      <trkpt lat="45.853072805330157" lon="7.642448069527745">
        <ele>2483.3600000000001</ele>
        <time>2019-01-16T12:30:42Z</time>
      </trkpt>
      <trkpt lat="45.853251926600933" lon="7.642381098121405">
        <ele>2481.4499999999998</ele>
        <time>2019-01-16T12:30:59Z</time>
      </trkpt>
      <trkpt lat="45.853429874405265" lon="7.642338685691357">
        <ele>2483.3299999999999</ele>
        <time>2019-01-16T12:31:14Z</time>
      </trkpt>
      <trkpt lat="45.853615282103419" lon="7.642375901341438">
        <ele>2481.4499999999998</ele>
        <time>2019-01-16T12:31:31Z</time>
      </trkpt>
      <trkpt lat="45.853797169402242" lon="7.642387300729752">
        <ele>2474.4499999999998</ele>
        <time>2019-01-16T12:32:54Z</time>
      </trkpt>
      <trkpt lat="45.853845281526446" lon="7.64237598516047">
        <ele>2472.91796875</ele>
      </trkpt>
      <trkpt lat="45.853800773620605" lon="7.642257213592529">
        <ele>2473.671875</ele>
      </trkpt>
      <trkpt lat="45.853865146636963" lon="7.642428874969482">
        <ele>2472.2265625</ele>
      </trkpt>
      <trkpt lat="45.853849556297064" lon="7.642553513869643">
        <ele>2470.71484375</ele>
      </trkpt>
      <trkpt lat="45.853865146636963" lon="7.642428874969482">
        <ele>2472.2265625</ele>
      </trkpt>
      <trkpt lat="45.853843688964844" lon="7.642600536346436">
        <ele>2469.578125</ele>
      </trkpt>
      <trkpt lat="45.853757858276367" lon="7.642664909362793">
        <ele>2468.03515625</ele>
      </trkpt>
      <trkpt lat="45.853711925446987" lon="7.642772113904357">
        <ele>2465.5546875</ele>
      </trkpt>
      <trkpt lat="45.853757858276367" lon="7.642664909362793">
        <ele>2468.03515625</ele>
      </trkpt>
      <trkpt lat="45.85369348526001" lon="7.642815113067627">
        <ele>2464.84375</ele>
      </trkpt>
      <trkpt lat="45.85369348526001" lon="7.642922401428223">
        <ele>2461.9375</ele>
      </trkpt>
      <trkpt lat="45.853757858276367" lon="7.643008232116699">
        <ele>2458.609375</ele>
      </trkpt>
      <trkpt lat="45.853792810812593" lon="7.643095655366778">
        <ele>2455.98046875</ele>
      </trkpt>
      <trkpt lat="45.853757858276367" lon="7.643008232116699">
        <ele>2458.609375</ele>
      </trkpt>
      <trkpt lat="45.853800773620605" lon="7.643115520477295">
        <ele>2455.36328125</ele>
      </trkpt>
      <trkpt lat="45.853672027587891" lon="7.643265724182129">
        <ele>2453.04296875</ele>
      </trkpt>
      <trkpt lat="45.853645205497742" lon="7.643364127725363">
        <ele>2450.7890625</ele>
      </trkpt>
      <trkpt lat="45.853672027587891" lon="7.643265724182129">
        <ele>2453.04296875</ele>
      </trkpt>
      <trkpt lat="45.853607654571533" lon="7.64350175857544">
        <ele>2447.6328125</ele>
      </trkpt>
      <trkpt lat="45.853587789461017" lon="7.643740391358733">
        <ele>2441.87890625</ele>
      </trkpt>
      <trkpt lat="45.853607654571533" lon="7.64350175857544">
        <ele>2447.6328125</ele>
      </trkpt>
      <trkpt lat="45.853586196899414" lon="7.643759250640869">
        <ele>2441.57421875</ele>
      </trkpt>
      <trkpt lat="45.853672027587891" lon="7.643823623657227">
        <ele>2438.55859375</ele>
      </trkpt>
      <trkpt lat="45.85369348526001" lon="7.643952369689941">
        <ele>2435.77734375</ele>
      </trkpt>
      <trkpt lat="45.853754002600908" lon="7.644049180671573">
        <ele>2433.50390625</ele>
      </trkpt>
      <trkpt lat="45.85369348526001" lon="7.643952369689941">
        <ele>2435.77734375</ele>
      </trkpt>
      <trkpt lat="45.853800773620605" lon="7.644124031066895">
        <ele>2431.63671875</ele>
      </trkpt>
      <trkpt lat="45.85392951965332" lon="7.64423131942749">
        <ele>2426.92578125</ele>
      </trkpt>
      <trkpt lat="45.854015350341797" lon="7.644381523132324">
        <ele>2423.5625</ele>
      </trkpt>
      <trkpt lat="45.854037310928106" lon="7.644469365477562">
        <ele>2422.05859375</ele>
      </trkpt>
      <trkpt lat="45.854015350341797" lon="7.644381523132324">
        <ele>2423.5625</ele>
      </trkpt>
      <trkpt lat="45.854101181030273" lon="7.644724845886231">
        <ele>2419.4921875</ele>
      </trkpt>
      <trkpt lat="45.854144096374512" lon="7.644810676574707">
        <ele>2418.37109375</ele>
      </trkpt>
      <trkpt lat="45.854287929832935" lon="7.644851580262184">
        <ele>2413.98046875</ele>
      </trkpt>
      <trkpt lat="45.854144096374512" lon="7.644810676574707">
        <ele>2418.37109375</ele>
      </trkpt>
      <trkpt lat="45.854294300079346" lon="7.644853591918945">
        <ele>2413.734375</ele>
      </trkpt>
      <trkpt lat="45.854423046112061" lon="7.644939422607422">
        <ele>2409.44921875</ele>
      </trkpt>
      <trkpt lat="45.854594707489014" lon="7.645046710968018">
        <ele>2403.203125</ele>
      </trkpt>
      <trkpt lat="45.854701995849609" lon="7.645175457000732">
        <ele>2398.8125</ele>
      </trkpt>
      <trkpt lat="45.854755472391844" lon="7.645268915221095">
        <ele>2396.93359375</ele>
      </trkpt>
      <trkpt lat="45.854701995849609" lon="7.645175457000732">
        <ele>2398.8125</ele>
      </trkpt>
      <trkpt lat="45.854873657226563" lon="7.6454758644104">
        <ele>2392.76171875</ele>
      </trkpt>
      <trkpt lat="45.855002403259277" lon="7.645668983459473">
        <ele>2388.92578125</ele>
      </trkpt>
      <trkpt lat="45.855109691619873" lon="7.645883560180664">
        <ele>2384.2890625</ele>
      </trkpt>
      <trkpt lat="45.855121342465281" lon="7.645930079743266">
        <ele>2383.0625</ele>
      </trkpt>
      <trkpt lat="45.855109691619873" lon="7.645883560180664">
        <ele>2384.2890625</ele>
      </trkpt>
      <trkpt lat="45.85517406463623" lon="7.646141052246094">
        <ele>2376.96484375</ele>
      </trkpt>
      <trkpt lat="45.85517406463623" lon="7.646256890147924">
        <ele>2374.5</ele>
      </trkpt>
      <trkpt lat="45.85517406463623" lon="7.646257057785988">
        <ele>2374.5</ele>
      </trkpt>
      <trkpt lat="45.85517406463623" lon="7.646258566528559">
        <ele>2374.46875</ele>
      </trkpt>
      <trkpt lat="45.85517406463623" lon="7.646141052246094">
        <ele>2376.96484375</ele>
      </trkpt>
      <trkpt lat="45.85517406463623" lon="7.646558471024036">
        <ele>2369.16015625</ele>
      </trkpt>
      <trkpt lat="45.85517406463623" lon="7.646141052246094">
        <ele>2376.96484375</ele>
      </trkpt>
      <trkpt lat="45.85517406463623" lon="7.646570205688477">
        <ele>2369.00390625</ele>
      </trkpt>
      <trkpt lat="45.855216979980469" lon="7.64674186706543">
        <ele>2365.421875</ele>
      </trkpt>
      <trkpt lat="45.855235252529383" lon="7.646778412163258">
        <ele>2364.89453125</ele>
      </trkpt>
      <trkpt lat="45.855216979980469" lon="7.64674186706543">
        <ele>2365.421875</ele>
      </trkpt>
      <trkpt lat="45.855302810668945" lon="7.646913528442383">
        <ele>2362.9453125</ele>
      </trkpt>
      <trkpt lat="45.855334829539061" lon="7.64693096280098">
        <ele>2361.85546875</ele>
      </trkpt>
      <trkpt lat="45.855302810668945" lon="7.646913528442383">
        <ele>2362.9453125</ele>
      </trkpt>
      <trkpt lat="45.855495342984796" lon="7.647018469870091">
        <ele>2358.671875</ele>
      </trkpt>
      <trkpt lat="45.855302810668945" lon="7.646913528442383">
        <ele>2362.9453125</ele>
      </trkpt>
      <trkpt lat="45.855538845062256" lon="7.647042274475098">
        <ele>2358.28515625</ele>
      </trkpt>
      <trkpt lat="45.855641607195139" lon="7.647119220346212">
        <ele>2357.32421875</ele>
      </trkpt>
      <trkpt lat="45.855538845062256" lon="7.647042274475098">
        <ele>2358.28515625</ele>
      </trkpt>
      <trkpt lat="45.855710506439209" lon="7.647171020507813">
        <ele>2356.484375</ele>
      </trkpt>
      <trkpt lat="45.855764234438539" lon="7.64718166552484">
        <ele>2355.5390625</ele>
      </trkpt>
      <trkpt lat="45.855710506439209" lon="7.647171020507813">
        <ele>2356.484375</ele>
      </trkpt>
      <trkpt lat="45.855920892208815" lon="7.647213013842702">
        <ele>2352.359375</ele>
      </trkpt>
      <trkpt lat="45.855921059846878" lon="7.647213013842702">
        <ele>2352.35546875</ele>
      </trkpt>
      <trkpt lat="45.8559700101614" lon="7.647149981930852">
        <ele>2365.9400000000001</ele>
        <time>2013-04-06T09:13:49Z</time>
      </trkpt>
      <trkpt lat="45.856230016797781" lon="7.646610019728541">
        <ele>2361.6199999999999</ele>
        <time>2013-04-06T09:13:56Z</time>
      </trkpt>
      <trkpt lat="45.856269998475909" lon="7.646429976448417">
        <ele>2361.1399999999999</ele>
        <time>2013-04-06T09:14:06Z</time>
      </trkpt>
      <trkpt lat="45.856269998475909" lon="7.646410027518868">
        <ele>2361.1399999999999</ele>
        <time>2013-04-06T09:14:36Z</time>
      </trkpt>
      <trkpt lat="45.85650997236371" lon="7.646359987556934">
        <ele>2353.4400000000001</ele>
        <time>2013-04-06T09:14:41Z</time>
      </trkpt>
      <trkpt lat="45.85655003786087" lon="7.646289998665452">
        <ele>2348.1599999999999</ele>
        <time>2013-04-06T09:14:42Z</time>
      </trkpt>
      <trkpt lat="45.856709964573383" lon="7.646159995347261">
        <ele>2340.9499999999998</ele>
        <time>2013-04-06T09:14:45Z</time>
      </trkpt>
      <trkpt lat="45.856880033388734" lon="7.646110039204359">
        <ele>2337.5799999999999</ele>
        <time>2013-04-06T09:14:48Z</time>
      </trkpt>
      <trkpt lat="45.856950022280216" lon="7.64592002145946">
        <ele>2333.7399999999998</ele>
        <time>2013-04-06T09:14:51Z</time>
      </trkpt>
      <trkpt lat="45.85698002949357" lon="7.645850032567978">
        <ele>2334.2199999999998</ele>
        <time>2013-04-06T09:14:52Z</time>
      </trkpt>
      <trkpt lat="45.857029985636473" lon="7.645679963752627">
        <ele>2329.8899999999999</ele>
        <time>2013-04-06T09:14:54Z</time>
      </trkpt>
      <trkpt lat="45.857120007276535" lon="7.645500004291534">
        <ele>2326.5300000000002</ele>
        <time>2013-04-06T09:14:57Z</time>
      </trkpt>
      <trkpt lat="45.857140040025115" lon="7.645370000973344">
        <ele>2326.5300000000002</ele>
        <time>2013-04-06T09:14:59Z</time>
      </trkpt>
      <trkpt lat="45.857210028916597" lon="7.6450199726969">
        <ele>2321.7199999999998</ele>
        <time>2013-04-06T09:15:09Z</time>
      </trkpt>
      <trkpt lat="45.857359981164336" lon="7.645070012658835">
        <ele>2319.3200000000002</ele>
        <time>2013-04-06T09:15:13Z</time>
      </trkpt>
      <trkpt lat="45.857459977269173" lon="7.645140001550317">
        <ele>2315.4699999999998</ele>
        <time>2013-04-06T09:15:15Z</time>
      </trkpt>
      <trkpt lat="45.857629962265491" lon="7.645230023190379">
        <ele>2312.1100000000001</ele>
        <time>2013-04-06T09:15:17Z</time>
      </trkpt>
      <trkpt lat="45.857919976115227" lon="7.645279979333282">
        <ele>2306.3400000000001</ele>
        <time>2013-04-06T09:15:20Z</time>
      </trkpt>
      <trkpt lat="45.858200015500188" lon="7.645209990441799">
        <ele>2302.4899999999998</ele>
        <time>2013-04-06T09:15:24Z</time>
      </trkpt>
      <trkpt lat="45.858379974961281" lon="7.645140001550317">
        <ele>2295.2800000000002</ele>
        <time>2013-04-06T09:15:38Z</time>
      </trkpt>
      <trkpt lat="45.858390033245087" lon="7.645130027085543">
        <ele>2300.0900000000001</ele>
        <time>2013-04-06T09:15:39Z</time>
      </trkpt>
      <trkpt lat="45.858539985492826" lon="7.644979991018772">
        <ele>2302.0100000000002</ele>
        <time>2013-04-06T09:15:53Z</time>
      </trkpt>
      <trkpt lat="45.858639981597662" lon="7.64488996937871">
        <ele>2302.0100000000002</ele>
        <time>2013-04-06T09:16:10Z</time>
      </trkpt>
      <trkpt lat="45.858809966593981" lon="7.645119968801737">
        <ele>2296.73</ele>
        <time>2013-04-06T09:16:19Z</time>
      </trkpt>
      <trkpt lat="45.858909962698817" lon="7.645190041512251">
        <ele>2294.3200000000002</ele>
        <time>2013-04-06T09:16:21Z</time>
      </trkpt>
      <trkpt lat="45.859029991552234" lon="7.645249972119927">
        <ele>2289.04</ele>
        <time>2013-04-06T09:16:24Z</time>
      </trkpt>
      <trkpt lat="45.859180027619004" lon="7.645330019295216">
        <ele>2284.71</ele>
        <time>2013-04-06T09:16:27Z</time>
      </trkpt>
      <trkpt lat="45.859250016510487" lon="7.64536002650857">
        <ele>2284.71</ele>
        <time>2013-04-06T09:16:28Z</time>
      </trkpt>
      <trkpt lat="45.859329979866743" lon="7.645390033721924">
        <ele>2281.3499999999999</ele>
        <time>2013-04-06T09:16:30Z</time>
      </trkpt>
      <trkpt lat="45.859359987080097" lon="7.645390033721924">
        <ele>2281.8299999999999</ele>
        <time>2013-04-06T09:16:31Z</time>
      </trkpt>
      <trkpt lat="45.859389994293451" lon="7.64536002650857">
        <ele>2276.0599999999999</ele>
        <time>2013-04-06T09:16:37Z</time>
      </trkpt>
      <trkpt lat="45.859389994293451" lon="7.645349968224764">
        <ele>2281.8299999999999</ele>
        <time>2013-04-06T09:16:38Z</time>
      </trkpt>
      <trkpt lat="45.859389994293451" lon="7.645349968224764">
        <ele>2269.3299999999999</ele>
        <time>2013-04-06T09:16:39Z</time>
      </trkpt>
      <trkpt lat="45.859389994293451" lon="7.645349968224764">
        <ele>2280.3800000000001</ele>
        <time>2013-04-06T09:16:40Z</time>
      </trkpt>
      <trkpt lat="45.859389994293451" lon="7.645349968224764">
        <ele>2281.3499999999999</ele>
        <time>2013-04-06T09:16:41Z</time>
      </trkpt>
      <trkpt lat="45.859659975394607" lon="7.645420040935278">
        <ele>2276.54</ele>
        <time>2013-04-06T09:16:53Z</time>
      </trkpt>
      <trkpt lat="45.859729964286089" lon="7.645390033721924">
        <ele>2273.1700000000001</ele>
        <time>2013-04-06T09:16:55Z</time>
      </trkpt>
      <trkpt lat="45.859819985926151" lon="7.6454499643296">
        <ele>2272.21</ele>
        <time>2013-04-06T09:16:59Z</time>
      </trkpt>
      <trkpt lat="45.859880000352859" lon="7.64549002982676">
        <ele>2268.8499999999999</ele>
        <time>2013-04-06T09:17:03Z</time>
      </trkpt>
      <trkpt lat="45.860040010884404" lon="7.645420040935278">
        <ele>2261.6399999999999</ele>
        <time>2013-04-06T09:17:09Z</time>
      </trkpt>
      <trkpt lat="45.860149981454015" lon="7.645549960434437">
        <ele>2254.9099999999999</ele>
        <time>2013-04-06T09:17:14Z</time>
      </trkpt>
      <trkpt lat="45.860339999198914" lon="7.64576998539269">
        <ele>2249.1399999999999</ele>
        <time>2013-04-06T09:17:20Z</time>
      </trkpt>
      <trkpt lat="45.860400013625622" lon="7.645829999819398">
        <ele>2245.3000000000002</ele>
        <time>2013-04-06T09:17:24Z</time>
      </trkpt>
      <trkpt lat="45.860500009730458" lon="7.646110039204359">
        <ele>2237.1300000000001</ele>
        <time>2013-04-06T09:17:33Z</time>
      </trkpt>
      <trkpt lat="45.860739983618259" lon="7.64619997702539">
        <ele>2233.2800000000002</ele>
        <time>2013-04-06T09:17:38Z</time>
      </trkpt>
      <trkpt lat="45.860920026898384" lon="7.646540030837059">
        <ele>2229.4299999999998</ele>
        <time>2013-04-06T09:17:45Z</time>
      </trkpt>
      <trkpt lat="45.860939975827932" lon="7.646580012515187">
        <ele>2226.0700000000002</ele>
        <time>2013-04-06T09:17:48Z</time>
      </trkpt>
      <trkpt lat="45.860969983041286" lon="7.646619994193316">
        <ele>2227.9899999999998</ele>
        <time>2013-04-06T09:17:50Z</time>
      </trkpt>
      <trkpt lat="45.861139968037605" lon="7.646559979766607">
        <ele>2221.2600000000002</ele>
        <time>2013-04-06T09:17:57Z</time>
      </trkpt>
      <trkpt lat="45.861180033534765" lon="7.646519998088479">
        <ele>2223.6700000000001</ele>
        <time>2013-04-06T09:17:58Z</time>
      </trkpt>
      <trkpt lat="45.861220015212893" lon="7.646440034732223">
        <ele>2219.3400000000001</ele>
        <time>2013-04-06T09:18:00Z</time>
      </trkpt>
      <trkpt lat="45.86129997856915" lon="7.646129988133907">
        <ele>2215.0100000000002</ele>
        <time>2013-04-06T09:18:04Z</time>
      </trkpt>
      <trkpt lat="45.861359992995858" lon="7.645929995924234">
        <ele>2212.6100000000001</ele>
        <time>2013-04-06T09:18:06Z</time>
      </trkpt>
      <trkpt lat="45.861380025744438" lon="7.645850032567978">
        <ele>2209.73</ele>
        <time>2013-04-06T09:18:07Z</time>
      </trkpt>
      <trkpt lat="45.861399974673986" lon="7.64576998539269">
        <ele>2209.73</ele>
        <time>2013-04-06T09:18:08Z</time>
      </trkpt>
      <trkpt lat="45.861499970778823" lon="7.645639982074499">
        <ele>2207.3200000000002</ele>
        <time>2013-04-06T09:18:11Z</time>
      </trkpt>
      <trkpt lat="45.861610025167465" lon="7.64546999707818">
        <ele>2203.96</ele>
        <time>2013-04-06T09:18:15Z</time>
      </trkpt>
      <trkpt lat="45.861629974097013" lon="7.645439989864826">
        <ele>2203.48</ele>
        <time>2013-04-06T09:18:16Z</time>
      </trkpt>
      <trkpt lat="45.861699962988496" lon="7.645379975438118">
        <ele>2200.1100000000001</ele>
        <time>2013-04-06T09:18:19Z</time>
      </trkpt>
      <trkpt lat="45.861799959093332" lon="7.645260030403733">
        <ele>2199.6300000000001</ele>
        <time>2013-04-06T09:18:24Z</time>
      </trkpt>
      <trkpt lat="45.861870031803846" lon="7.645100019872189">
        <ele>2196.27</ele>
        <time>2013-04-06T09:18:27Z</time>
      </trkpt>
      <trkpt lat="45.861949995160103" lon="7.64493003487587">
        <ele>2192.9000000000001</ele>
        <time>2013-04-06T09:18:31Z</time>
      </trkpt>
      <trkpt lat="45.862100031226873" lon="7.644740017130971">
        <ele>2189.54</ele>
        <time>2013-04-06T09:18:36Z</time>
      </trkpt>
      <trkpt lat="45.86220002733171" lon="7.6445899810642">
        <ele>2187.6199999999999</ele>
        <time>2013-04-06T09:18:46Z</time>
      </trkpt>
      <trkpt lat="45.862260041758418" lon="7.644580006599426">
        <ele>2186.1799999999998</ele>
        <time>2013-04-06T09:18:48Z</time>
      </trkpt>
      <trkpt lat="45.862360037863255" lon="7.644629962742329">
        <ele>2181.8499999999999</ele>
        <time>2013-04-06T09:18:50Z</time>
      </trkpt>
      <trkpt lat="45.862400019541383" lon="7.644629962742329">
        <ele>2181.8499999999999</ele>
        <time>2013-04-06T09:18:51Z</time>
      </trkpt>
      <trkpt lat="45.862449975684285" lon="7.644570032134652">
        <ele>2179.4499999999998</ele>
        <time>2013-04-06T09:18:53Z</time>
      </trkpt>
      <trkpt lat="45.862500015646219" lon="7.644629962742329">
        <ele>2176.0799999999999</ele>
        <time>2013-04-06T09:18:57Z</time>
      </trkpt>
      <trkpt lat="45.862670000642538" lon="7.644749991595745">
        <ele>2171.27</ele>
        <time>2013-04-06T09:19:03Z</time>
      </trkpt>
      <trkpt lat="45.862820036709309" lon="7.644810006022453">
        <ele>2163.0999999999999</ele>
        <time>2013-04-06T09:19:06Z</time>
      </trkpt>
      <trkpt lat="45.862860018387437" lon="7.644849987700582">
        <ele>2157.8200000000002</ele>
        <time>2013-04-06T09:19:10Z</time>
      </trkpt>
      <trkpt lat="45.862909974530339" lon="7.644870020449162">
        <ele>2158.3000000000002</ele>
        <time>2013-04-06T09:19:13Z</time>
      </trkpt>
      <trkpt lat="45.862939981743693" lon="7.644870020449162">
        <ele>2154.9299999999998</ele>
        <time>2013-04-06T09:19:15Z</time>
      </trkpt>
      <trkpt lat="45.862950040027499" lon="7.644870020449162">
        <ele>2154.9299999999998</ele>
        <time>2013-04-06T09:19:16Z</time>
      </trkpt>
      <trkpt lat="45.862979963421822" lon="7.644859962165356">
        <ele>2151.5700000000002</ele>
        <time>2013-04-06T09:19:19Z</time>
      </trkpt>
      <trkpt lat="45.863030003383756" lon="7.644900027662516">
        <ele>2147.2399999999998</ele>
        <time>2013-04-06T09:19:23Z</time>
      </trkpt>
      <trkpt lat="45.863079959526658" lon="7.64491000212729">
        <ele>2142.4400000000001</ele>
        <time>2013-04-06T09:19:25Z</time>
      </trkpt>
      <trkpt lat="45.863090017810464" lon="7.644900027662516">
        <ele>2142.4400000000001</ele>
        <time>2013-04-06T09:19:26Z</time>
      </trkpt>
      <trkpt lat="45.863150032237172" lon="7.64493003487587">
        <ele>2138.5900000000001</ele>
        <time>2013-04-06T09:19:29Z</time>
      </trkpt>
      <trkpt lat="45.863380031660199" lon="7.644830038771033">
        <ele>2131.3800000000001</ele>
        <time>2013-04-06T09:19:35Z</time>
      </trkpt>
      <trkpt lat="45.863539958372712" lon="7.644830038771033">
        <ele>2127.0500000000002</ele>
        <time>2013-04-06T09:19:37Z</time>
      </trkpt>
      <trkpt lat="45.863710027188063" lon="7.644819980487227">
        <ele>2123.21</ele>
        <time>2013-04-06T09:19:39Z</time>
      </trkpt>
      <trkpt lat="45.864129960536957" lon="7.644789973273873">
        <ele>2119.3600000000001</ele>
        <time>2013-04-06T09:19:45Z</time>
      </trkpt>
      <trkpt lat="45.864319978281856" lon="7.644529966637492">
        <ele>2119.3600000000001</ele>
        <time>2013-04-06T09:19:55Z</time>
      </trkpt>
      <trkpt lat="45.864749969914556" lon="7.644419996067882">
        <ele>2116</ele>
        <time>2013-04-06T09:20:08Z</time>
      </trkpt>
      <trkpt lat="45.864819958806038" lon="7.644310025498271">
        <ele>2115.04</ele>
        <time>2013-04-06T09:20:49Z</time>
      </trkpt>
      <trkpt lat="45.864860024303198" lon="7.644220003858209">
        <ele>2104.9400000000001</ele>
        <time>2013-04-06T09:22:44Z</time>
      </trkpt>
      <trkpt lat="45.864860024303198" lon="7.644220003858209">
        <ele>2110.23</ele>
        <time>2013-04-06T09:22:45Z</time>
      </trkpt>
      <trkpt lat="45.864860024303198" lon="7.644220003858209">
        <ele>2117.9200000000001</ele>
        <time>2013-04-06T09:22:46Z</time>
      </trkpt>
      <trkpt lat="45.864860024303198" lon="7.644220003858209">
        <ele>2121.77</ele>
        <time>2013-04-06T09:22:47Z</time>
      </trkpt>
      <trkpt lat="45.864860024303198" lon="7.644220003858209">
        <ele>2113.1199999999999</ele>
        <time>2013-04-06T09:22:48Z</time>
      </trkpt>
      <trkpt lat="45.864860024303198" lon="7.644220003858209">
        <ele>2119.8400000000001</ele>
        <time>2013-04-06T09:22:49Z</time>
      </trkpt>
      <trkpt lat="45.864860024303198" lon="7.644220003858209">
        <ele>2116.48</ele>
        <time>2013-04-06T09:22:51Z</time>
      </trkpt>
      <trkpt lat="45.864939987659454" lon="7.644120007753372">
        <ele>2113.5999999999999</ele>
        <time>2013-04-06T09:23:22Z</time>
      </trkpt>
      <trkpt lat="45.864939987659454" lon="7.644120007753372">
        <ele>2117.4400000000001</ele>
        <time>2013-04-06T09:23:24Z</time>
      </trkpt>
      <trkpt lat="45.864939987659454" lon="7.644120007753372">
        <ele>2113.5999999999999</ele>
        <time>2013-04-06T09:23:25Z</time>
      </trkpt>
      <trkpt lat="45.864939987659454" lon="7.644120007753372">
        <ele>2117.9200000000001</ele>
        <time>2013-04-06T09:23:26Z</time>
      </trkpt>
      <trkpt lat="45.864939987659454" lon="7.644099975004792">
        <ele>2111.6700000000001</ele>
        <time>2013-04-06T09:23:48Z</time>
      </trkpt>
      <trkpt lat="45.864939987659454" lon="7.644099975004792">
        <ele>2114.0799999999999</ele>
        <time>2013-04-06T09:23:49Z</time>
      </trkpt>
      <trkpt lat="45.864949962124228" lon="7.644059993326664">
        <ele>2102.54</ele>
        <time>2013-04-06T09:24:00Z</time>
      </trkpt>
      <trkpt lat="45.864949962124228" lon="7.644059993326664">
        <ele>2130.4200000000001</ele>
        <time>2013-04-06T09:24:01Z</time>
      </trkpt>
      <trkpt lat="45.864949962124228" lon="7.644059993326664">
        <ele>2121.29</ele>
        <time>2013-04-06T09:24:02Z</time>
      </trkpt>
      <trkpt lat="45.864960020408034" lon="7.644039960578084">
        <ele>2118.4000000000001</ele>
        <time>2013-04-06T09:24:04Z</time>
      </trkpt>
      <trkpt lat="45.864969994872808" lon="7.643999978899956">
        <ele>2104.46</ele>
        <time>2013-04-06T09:24:06Z</time>
      </trkpt>
      <trkpt lat="45.864969994872808" lon="7.643999978899956">
        <ele>2115.52</ele>
        <time>2013-04-06T09:24:07Z</time>
      </trkpt>
      <trkpt lat="45.864969994872808" lon="7.643999978899956">
        <ele>2108.79</ele>
        <time>2013-04-06T09:24:11Z</time>
      </trkpt>
      <trkpt lat="45.864969994872808" lon="7.643999978899956">
        <ele>2123.6900000000001</ele>
        <time>2013-04-06T09:24:12Z</time>
      </trkpt>
      <trkpt lat="45.864969994872808" lon="7.643990004435182">
        <ele>2122.73</ele>
        <time>2013-04-06T09:24:13Z</time>
      </trkpt>
      <trkpt lat="45.864969994872808" lon="7.643990004435182">
        <ele>2118.4000000000001</ele>
        <time>2013-04-06T09:24:15Z</time>
      </trkpt>
      <trkpt lat="45.864969994872808" lon="7.643990004435182">
        <ele>2118.8800000000001</ele>
        <time>2013-04-06T09:24:16Z</time>
      </trkpt>
      <trkpt lat="45.864979969337583" lon="7.643959997221828">
        <ele>2099.1799999999998</ele>
        <time>2013-04-06T09:24:21Z</time>
      </trkpt>
      <trkpt lat="45.864979969337583" lon="7.643959997221828">
        <ele>2116</ele>
        <time>2013-04-06T09:24:22Z</time>
      </trkpt>
      <trkpt lat="45.864979969337583" lon="7.643959997221828">
        <ele>2124.1700000000001</ele>
        <time>2013-04-06T09:24:23Z</time>
      </trkpt>
      <trkpt lat="45.864979969337583" lon="7.643959997221828">
        <ele>2120.8099999999999</ele>
        <time>2013-04-06T09:24:24Z</time>
      </trkpt>
      <trkpt lat="45.864979969337583" lon="7.643929990008473">
        <ele>2116.96</ele>
        <time>2013-04-06T09:24:25Z</time>
      </trkpt>
      <trkpt lat="45.864979969337583" lon="7.643899982795119">
        <ele>2099.1799999999998</ele>
        <time>2013-04-06T09:24:29Z</time>
      </trkpt>
      <trkpt lat="45.864979969337583" lon="7.643890008330345">
        <ele>2122.73</ele>
        <time>2013-04-06T09:24:30Z</time>
      </trkpt>
      <trkpt lat="45.864979969337583" lon="7.643890008330345">
        <ele>2116.96</ele>
        <time>2013-04-06T09:24:31Z</time>
      </trkpt>
      <trkpt lat="45.864990027621388" lon="7.643860001116991">
        <ele>2120.8099999999999</ele>
        <time>2013-04-06T09:24:33Z</time>
      </trkpt>
      <trkpt lat="45.864990027621388" lon="7.643860001116991">
        <ele>2115.52</ele>
        <time>2013-04-06T09:24:34Z</time>
      </trkpt>
      <trkpt lat="45.865000002086163" lon="7.643850026652217">
        <ele>2111.1900000000001</ele>
        <time>2013-04-06T09:24:35Z</time>
      </trkpt>
      <trkpt lat="45.865009976550937" lon="7.643850026652217">
        <ele>2115.52</ele>
        <time>2013-04-06T09:24:36Z</time>
      </trkpt>
      <trkpt lat="45.865039983764291" lon="7.643809961155057">
        <ele>2118.8800000000001</ele>
        <time>2013-04-06T09:24:42Z</time>
      </trkpt>
      <trkpt lat="45.865039983764291" lon="7.643799986690283">
        <ele>2115.04</ele>
        <time>2013-04-06T09:24:44Z</time>
      </trkpt>
      <trkpt lat="45.865049958229065" lon="7.643790012225509">
        <ele>2106.8699999999999</ele>
        <time>2013-04-06T09:24:46Z</time>
      </trkpt>
      <trkpt lat="45.865049958229065" lon="7.643780037760735">
        <ele>2116</ele>
        <time>2013-04-06T09:24:47Z</time>
      </trkpt>
      <trkpt lat="45.865049958229065" lon="7.643769979476929">
        <ele>2122.73</ele>
        <time>2013-04-06T09:24:50Z</time>
      </trkpt>
      <trkpt lat="45.865049958229065" lon="7.643760005012155">
        <ele>2120.8099999999999</ele>
        <time>2013-04-06T09:24:51Z</time>
      </trkpt>
      <trkpt lat="45.865060016512871" lon="7.643720023334026">
        <ele>2111.6700000000001</ele>
        <time>2013-04-06T09:24:55Z</time>
      </trkpt>
      <trkpt lat="45.865060016512871" lon="7.643720023334026">
        <ele>2114.5599999999999</ele>
        <time>2013-04-06T09:24:56Z</time>
      </trkpt>
      <trkpt lat="45.865060016512871" lon="7.643709965050221">
        <ele>2121.29</ele>
        <time>2013-04-06T09:25:00Z</time>
      </trkpt>
      <trkpt lat="45.865060016512871" lon="7.643699990585446">
        <ele>2119.8400000000001</ele>
        <time>2013-04-06T09:25:01Z</time>
      </trkpt>
      <trkpt lat="45.865060016512871" lon="7.643699990585446">
        <ele>2114.0799999999999</ele>
        <time>2013-04-06T09:25:02Z</time>
      </trkpt>
      <trkpt lat="45.865060016512871" lon="7.643699990585446">
        <ele>2116.96</ele>
        <time>2013-04-06T09:25:03Z</time>
      </trkpt>
      <trkpt lat="45.865069990977645" lon="7.643669983372092">
        <ele>2112.1500000000001</ele>
        <time>2013-04-06T09:25:09Z</time>
      </trkpt>
      <trkpt lat="45.865079965442419" lon="7.643660008907318">
        <ele>2115.04</ele>
        <time>2013-04-06T09:25:10Z</time>
      </trkpt>
      <trkpt lat="45.865079965442419" lon="7.643660008907318">
        <ele>2118.4000000000001</ele>
        <time>2013-04-06T09:25:13Z</time>
      </trkpt>
      <trkpt lat="45.865079965442419" lon="7.643669983372092">
        <ele>2113.1199999999999</ele>
        <time>2013-04-06T09:25:15Z</time>
      </trkpt>
      <trkpt lat="45.865079965442419" lon="7.643669983372092">
        <ele>2119.3600000000001</ele>
        <time>2013-04-06T09:25:16Z</time>
      </trkpt>
      <trkpt lat="45.865079965442419" lon="7.643660008907318">
        <ele>2115.52</ele>
        <time>2013-04-06T09:25:19Z</time>
      </trkpt>
      <trkpt lat="45.865079965442419" lon="7.643660008907318">
        <ele>2109.75</ele>
        <time>2013-04-06T09:25:20Z</time>
      </trkpt>
      <trkpt lat="45.865090023726225" lon="7.643650034442544">
        <ele>2120.3200000000002</ele>
        <time>2013-04-06T09:25:21Z</time>
      </trkpt>
      <trkpt lat="45.865090023726225" lon="7.643650034442544">
        <ele>2117.9200000000001</ele>
        <time>2013-04-06T09:25:22Z</time>
      </trkpt>
      <trkpt lat="45.865090023726225" lon="7.643639976158738">
        <ele>2107.8299999999999</ele>
        <time>2013-04-06T09:25:31Z</time>
      </trkpt>
      <trkpt lat="45.865090023726225" lon="7.643639976158738">
        <ele>2126.5700000000002</ele>
        <time>2013-04-06T09:25:32Z</time>
      </trkpt>
      <trkpt lat="45.865090023726225" lon="7.643639976158738">
        <ele>2119.3600000000001</ele>
        <time>2013-04-06T09:25:33Z</time>
      </trkpt>
      <trkpt lat="45.865090023726225" lon="7.643639976158738">
        <ele>2108.79</ele>
        <time>2013-04-06T09:25:34Z</time>
      </trkpt>
      <trkpt lat="45.865090023726225" lon="7.643639976158738">
        <ele>2116</ele>
        <time>2013-04-06T09:25:35Z</time>
      </trkpt>
      <trkpt lat="45.865090023726225" lon="7.643639976158738">
        <ele>2119.3600000000001</ele>
        <time>2013-04-06T09:25:36Z</time>
      </trkpt>
      <trkpt lat="45.865090023726225" lon="7.643639976158738">
        <ele>2117.4400000000001</ele>
        <time>2013-04-06T09:25:37Z</time>
      </trkpt>
      <trkpt lat="45.865090023726225" lon="7.643639976158738">
        <ele>2112.6300000000001</ele>
        <time>2013-04-06T09:25:40Z</time>
      </trkpt>
      <trkpt lat="45.865090023726225" lon="7.643639976158738">
        <ele>2119.8400000000001</ele>
        <time>2013-04-06T09:25:41Z</time>
      </trkpt>
      <trkpt lat="45.865090023726225" lon="7.643639976158738">
        <ele>2114.0799999999999</ele>
        <time>2013-04-06T09:25:45Z</time>
      </trkpt>
      <trkpt lat="45.865090023726225" lon="7.643639976158738">
        <ele>2124.6500000000001</ele>
        <time>2013-04-06T09:25:46Z</time>
      </trkpt>
      <trkpt lat="45.865090023726225" lon="7.643630001693964">
        <ele>2110.23</ele>
        <time>2013-04-06T09:25:47Z</time>
      </trkpt>
      <trkpt lat="45.865090023726225" lon="7.643630001693964">
        <ele>2118.8800000000001</ele>
        <time>2013-04-06T09:25:48Z</time>
      </trkpt>
      <trkpt lat="45.865090023726225" lon="7.64362002722919">
        <ele>2112.6300000000001</ele>
        <time>2013-04-06T09:25:52Z</time>
      </trkpt>
      <trkpt lat="45.865090023726225" lon="7.64362002722919">
        <ele>2122.25</ele>
        <time>2013-04-06T09:25:54Z</time>
      </trkpt>
      <trkpt lat="45.865099998190999" lon="7.643609968945384">
        <ele>2113.5999999999999</ele>
        <time>2013-04-06T09:25:55Z</time>
      </trkpt>
      <trkpt lat="45.865099998190999" lon="7.643609968945384">
        <ele>2122.25</ele>
        <time>2013-04-06T09:25:56Z</time>
      </trkpt>
      <trkpt lat="45.865099998190999" lon="7.643609968945384">
        <ele>2116.48</ele>
        <time>2013-04-06T09:25:57Z</time>
      </trkpt>
      <trkpt lat="45.865099998190999" lon="7.64359999448061">
        <ele>2110.23</ele>
        <time>2013-04-06T09:25:59Z</time>
      </trkpt>
      <trkpt lat="45.865099998190999" lon="7.64359999448061">
        <ele>2122.73</ele>
        <time>2013-04-06T09:26:00Z</time>
      </trkpt>
      <trkpt lat="45.865099998190999" lon="7.64359999448061">
        <ele>2117.9200000000001</ele>
        <time>2013-04-06T09:26:01Z</time>
      </trkpt>
      <trkpt lat="45.865099998190999" lon="7.64359999448061">
        <ele>2111.6700000000001</ele>
        <time>2013-04-06T09:26:02Z</time>
      </trkpt>
      <trkpt lat="45.865099998190999" lon="7.64359999448061">
        <ele>2116</ele>
        <time>2013-04-06T09:26:03Z</time>
      </trkpt>
      <trkpt lat="45.865099998190999" lon="7.64359999448061">
        <ele>2112.1500000000001</ele>
        <time>2013-04-06T09:26:09Z</time>
      </trkpt>
      <trkpt lat="45.865099998190999" lon="7.64359999448061">
        <ele>2117.4400000000001</ele>
        <time>2013-04-06T09:26:10Z</time>
      </trkpt>
      <trkpt lat="45.865099998190999" lon="7.64359999448061">
        <ele>2123.21</ele>
        <time>2013-04-06T09:26:17Z</time>
      </trkpt>
      <trkpt lat="45.865099998190999" lon="7.64359999448061">
        <ele>2119.3600000000001</ele>
        <time>2013-04-06T09:26:18Z</time>
      </trkpt>
      <trkpt lat="45.865099998190999" lon="7.64359999448061">
        <ele>2114.0799999999999</ele>
        <time>2013-04-06T09:26:25Z</time>
      </trkpt>
      <trkpt lat="45.865099998190999" lon="7.64359999448061">
        <ele>2118.8800000000001</ele>
        <time>2013-04-06T09:26:27Z</time>
      </trkpt>
      <trkpt lat="45.865099998190999" lon="7.64359999448061">
        <ele>2112.1500000000001</ele>
        <time>2013-04-06T09:26:28Z</time>
      </trkpt>
      <trkpt lat="45.865099998190999" lon="7.64359999448061">
        <ele>2120.3200000000002</ele>
        <time>2013-04-06T09:26:29Z</time>
      </trkpt>
      <trkpt lat="45.865090023726225" lon="7.64359999448061">
        <ele>2113.1199999999999</ele>
        <time>2013-04-06T09:26:37Z</time>
      </trkpt>
      <trkpt lat="45.865090023726225" lon="7.64359999448061">
        <ele>2113.1199999999999</ele>
        <time>2013-04-06T09:26:38Z</time>
      </trkpt>
      <trkpt lat="45.865090023726225" lon="7.64359999448061">
        <ele>2119.8400000000001</ele>
        <time>2013-04-06T09:26:39Z</time>
      </trkpt>
      <trkpt lat="45.865090023726225" lon="7.64359999448061">
        <ele>2116.48</ele>
        <time>2013-04-06T09:26:42Z</time>
      </trkpt>
      <trkpt lat="45.865090023726225" lon="7.64359999448061">
        <ele>2120.3200000000002</ele>
        <time>2013-04-06T09:26:44Z</time>
      </trkpt>
      <trkpt lat="45.865090023726225" lon="7.64359999448061">
        <ele>2116.48</ele>
        <time>2013-04-06T09:26:50Z</time>
      </trkpt>
      <trkpt lat="45.865090023726225" lon="7.64359999448061">
        <ele>2116.96</ele>
        <time>2013-04-06T09:26:51Z</time>
      </trkpt>
      <trkpt lat="45.865260008722544" lon="7.64317000284791">
        <ele>2114.0799999999999</ele>
        <time>2013-04-06T09:27:32Z</time>
      </trkpt>
      <trkpt lat="45.865510040894151" lon="7.642670022323728">
        <ele>2113.5999999999999</ele>
        <time>2013-04-06T09:27:51Z</time>
      </trkpt>
      <trkpt lat="45.865510040894151" lon="7.642670022323728">
        <ele>2107.3499999999999</ele>
        <time>2013-04-06T09:27:54Z</time>
      </trkpt>
      <trkpt lat="45.865520015358925" lon="7.642659964039922">
        <ele>2111.1900000000001</ele>
        <time>2013-04-06T09:27:55Z</time>
      </trkpt>
      <trkpt lat="45.865550022572279" lon="7.642600033432245">
        <ele>2106.3899999999999</ele>
        <time>2013-04-06T09:28:19Z</time>
      </trkpt>
      <trkpt lat="45.865550022572279" lon="7.642600033432245">
        <ele>2110.71</ele>
        <time>2013-04-06T09:28:20Z</time>
      </trkpt>
      <trkpt lat="45.865690000355244" lon="7.642329968512058">
        <ele>2109.75</ele>
        <time>2013-04-06T09:28:47Z</time>
      </trkpt>
      <trkpt lat="45.865740040317178" lon="7.642059987410903">
        <ele>2104.46</ele>
        <time>2013-04-06T09:29:01Z</time>
      </trkpt>
      <trkpt lat="45.865759989246726" lon="7.641999972984195">
        <ele>2104.46</ele>
        <time>2013-04-06T09:29:07Z</time>
      </trkpt>
      <trkpt lat="45.86581002920866" lon="7.641989998519421">
        <ele>2098.6999999999998</ele>
        <time>2013-04-06T09:29:17Z</time>
      </trkpt>
      <trkpt lat="45.865820003673434" lon="7.642029980197549">
        <ele>2093.8899999999999</ele>
        <time>2013-04-06T09:29:29Z</time>
      </trkpt>
      <trkpt lat="45.865859985351563" lon="7.641989998519421">
        <ele>2090.52</ele>
        <time>2013-04-06T09:29:33Z</time>
      </trkpt>
      <trkpt lat="45.865910025313497" lon="7.642069961875677">
        <ele>2086.6799999999998</ele>
        <time>2013-04-06T09:29:39Z</time>
      </trkpt>
      <trkpt lat="45.866040028631687" lon="7.642199965193868">
        <ele>2078.5100000000002</ele>
        <time>2013-04-06T09:29:46Z</time>
      </trkpt>
      <trkpt lat="45.866080010309815" lon="7.642180016264319">
        <ele>2078.5100000000002</ele>
        <time>2013-04-06T09:29:48Z</time>
      </trkpt>
      <trkpt lat="45.866129966452718" lon="7.642250005155802">
        <ele>2072.7399999999998</ele>
        <time>2013-04-06T09:29:52Z</time>
      </trkpt>
      <trkpt lat="45.866229962557554" lon="7.642210023477674">
        <ele>2066.0100000000002</ele>
        <time>2013-04-06T09:29:56Z</time>
      </trkpt>
      <trkpt lat="45.866359965875745" lon="7.642180016264319">
        <ele>2057.3600000000001</ele>
        <time>2013-04-06T09:30:03Z</time>
      </trkpt>
      <trkpt lat="45.866370024159551" lon="7.642170041799545">
        <ele>2060.7199999999998</ele>
        <time>2013-04-06T09:30:04Z</time>
      </trkpt>
      <trkpt lat="45.866370024159551" lon="7.642170041799545">
        <ele>2059.7600000000002</ele>
        <time>2013-04-06T09:30:05Z</time>
      </trkpt>
      <trkpt lat="45.866419980302453" lon="7.642240030691028">
        <ele>2055.4400000000001</ele>
        <time>2013-04-06T09:30:08Z</time>
      </trkpt>
      <trkpt lat="45.866589965298772" lon="7.642229972407222">
        <ele>2050.6300000000001</ele>
        <time>2013-04-06T09:30:11Z</time>
      </trkpt>
      <trkpt lat="45.866640005260706" lon="7.642219997942448">
        <ele>2046.78</ele>
        <time>2013-04-06T09:30:12Z</time>
      </trkpt>
      <trkpt lat="45.866779983043671" lon="7.642319994047284">
        <ele>2042.9400000000001</ele>
        <time>2013-04-06T09:30:18Z</time>
      </trkpt>
      <trkpt lat="45.866819964721799" lon="7.642329968512058">
        <ele>2042.46</ele>
        <time>2013-04-06T09:30:27Z</time>
      </trkpt>
      <trkpt lat="45.867039989680052" lon="7.642340026795864">
        <ele>2023.23</ele>
        <time>2013-04-06T09:30:41Z</time>
      </trkpt>
      <trkpt lat="45.867039989680052" lon="7.642340026795864">
        <ele>2038.1300000000001</ele>
        <time>2013-04-06T09:30:42Z</time>
      </trkpt>
      <trkpt lat="45.867039989680052" lon="7.642340026795864">
        <ele>2031.8800000000001</ele>
        <time>2013-04-06T09:30:43Z</time>
      </trkpt>
      <trkpt lat="45.867039989680052" lon="7.642340026795864">
        <ele>2042.46</ele>
        <time>2013-04-06T09:30:44Z</time>
      </trkpt>
      <trkpt lat="45.867060022428632" lon="7.642340026795864">
        <ele>2038.1300000000001</ele>
        <time>2013-04-06T09:30:51Z</time>
      </trkpt>
      <trkpt lat="45.867169992998242" lon="7.642329968512058">
        <ele>2040.05</ele>
        <time>2013-04-06T09:31:12Z</time>
      </trkpt>
      <trkpt lat="45.867169992998242" lon="7.642319994047284">
        <ele>2043.9000000000001</ele>
        <time>2013-04-06T09:31:13Z</time>
      </trkpt>
      <trkpt lat="45.867169992998242" lon="7.642319994047284">
        <ele>2040.05</ele>
        <time>2013-04-06T09:31:14Z</time>
      </trkpt>
      <trkpt lat="45.867169992998242" lon="7.642329968512058">
        <ele>2043.4200000000001</ele>
        <time>2013-04-06T09:31:15Z</time>
      </trkpt>
      <trkpt lat="45.867179967463017" lon="7.642329968512058">
        <ele>2038.6099999999999</ele>
        <time>2013-04-06T09:31:18Z</time>
      </trkpt>
      <trkpt lat="45.867209974676371" lon="7.642350001260638">
        <ele>2042.46</ele>
        <time>2013-04-06T09:31:22Z</time>
      </trkpt>
      <trkpt lat="45.867250040173531" lon="7.642410015687347">
        <ele>2036.6900000000001</ele>
        <time>2013-04-06T09:31:32Z</time>
      </trkpt>
      <trkpt lat="45.867260014638305" lon="7.642410015687347">
        <ele>2043.4200000000001</ele>
        <time>2013-04-06T09:31:33Z</time>
      </trkpt>
      <trkpt lat="45.867260014638305" lon="7.642410015687347">
        <ele>2042.9400000000001</ele>
        <time>2013-04-06T09:31:35Z</time>
      </trkpt>
      <trkpt lat="45.867399992421269" lon="7.642440022900701">
        <ele>2035.25</ele>
        <time>2013-04-06T09:31:59Z</time>
      </trkpt>
      <trkpt lat="45.867399992421269" lon="7.642440022900701">
        <ele>2043.4200000000001</ele>
        <time>2013-04-06T09:32:00Z</time>
      </trkpt>
      <trkpt lat="45.867450032383204" lon="7.642500037327409">
        <ele>2051.5900000000001</ele>
        <time>2013-04-06T09:32:07Z</time>
      </trkpt>
      <trkpt lat="45.867450032383204" lon="7.642500037327409">
        <ele>2047.75</ele>
        <time>2013-04-06T09:32:08Z</time>
      </trkpt>
      <trkpt lat="45.867490014061332" lon="7.642540019005537">
        <ele>2042.46</ele>
        <time>2013-04-06T09:32:11Z</time>
      </trkpt>
      <trkpt lat="45.867490014061332" lon="7.642570026218891">
        <ele>2036.6900000000001</ele>
        <time>2013-04-06T09:32:13Z</time>
      </trkpt>
      <trkpt lat="45.867499988526106" lon="7.642570026218891">
        <ele>2044.8599999999999</ele>
        <time>2013-04-06T09:32:14Z</time>
      </trkpt>
      <trkpt lat="45.867429999634624" lon="7.642580000683665">
        <ele>2046.3</ele>
        <time>2013-04-06T09:32:24Z</time>
      </trkpt>
      <trkpt lat="45.867399992421269" lon="7.642580000683665">
        <ele>2041.5</ele>
        <time>2013-04-06T09:32:27Z</time>
      </trkpt>
      <trkpt lat="45.867320029065013" lon="7.642540019005537">
        <ele>2046.3</ele>
        <time>2013-04-06T09:32:36Z</time>
      </trkpt>
      <trkpt lat="45.867309970781207" lon="7.642549993470311">
        <ele>2041.5</ele>
        <time>2013-04-06T09:32:37Z</time>
      </trkpt>
      <trkpt lat="45.867299996316433" lon="7.642549993470311">
        <ele>2045.8199999999999</ele>
        <time>2013-04-06T09:32:38Z</time>
      </trkpt>
      <trkpt lat="45.867290021851659" lon="7.642540019005537">
        <ele>2042.46</ele>
        <time>2013-04-06T09:32:39Z</time>
      </trkpt>
      <trkpt lat="45.867260014638305" lon="7.642540019005537">
        <ele>2046.3</ele>
        <time>2013-04-06T09:32:43Z</time>
      </trkpt>
      <trkpt lat="45.867260014638305" lon="7.642549993470311">
        <ele>2046.3</ele>
        <time>2013-04-06T09:32:44Z</time>
      </trkpt>
      <trkpt lat="45.867279963567853" lon="7.642619982361794">
        <ele>2046.3</ele>
        <time>2013-04-06T09:33:01Z</time>
      </trkpt>
      <trkpt lat="45.867279963567853" lon="7.642659964039922">
        <ele>2041.98</ele>
        <time>2013-04-06T09:33:03Z</time>
      </trkpt>
      <trkpt lat="45.867279963567853" lon="7.642679996788502">
        <ele>2046.78</ele>
        <time>2013-04-06T09:33:04Z</time>
      </trkpt>
      <trkpt lat="45.867279963567853" lon="7.642770018428564">
        <ele>2047.26</ele>
        <time>2013-04-06T09:33:30Z</time>
      </trkpt>
      <trkpt lat="45.867290021851659" lon="7.642789967358112">
        <ele>2043.9000000000001</ele>
        <time>2013-04-06T09:34:20Z</time>
      </trkpt>
      <trkpt lat="45.867290021851659" lon="7.642789967358112">
        <ele>2044.3800000000001</ele>
        <time>2013-04-06T09:34:21Z</time>
      </trkpt>
      <trkpt lat="45.867279963567853" lon="7.642770018428564">
        <ele>2030.4400000000001</ele>
        <time>2013-04-06T09:35:23Z</time>
      </trkpt>
      <trkpt lat="45.867279963567853" lon="7.642770018428564">
        <ele>2049.1900000000001</ele>
        <time>2013-04-06T09:35:24Z</time>
      </trkpt>
      <trkpt lat="45.867279963567853" lon="7.642770018428564">
        <ele>2045.3399999999999</ele>
        <time>2013-04-06T09:35:27Z</time>
      </trkpt>
      <trkpt lat="45.867279963567853" lon="7.642749985679984">
        <ele>2045.8199999999999</ele>
        <time>2013-04-06T09:35:46Z</time>
      </trkpt>
      <trkpt lat="45.867279963567853" lon="7.642710004001856">
        <ele>2045.8199999999999</ele>
        <time>2013-04-06T09:37:28Z</time>
      </trkpt>
      <trkpt lat="45.867279963567853" lon="7.642710004001856">
        <ele>2061.6799999999998</ele>
        <time>2013-04-06T09:37:41Z</time>
      </trkpt>
      <trkpt lat="45.867279963567853" lon="7.642710004001856">
        <ele>2047.75</ele>
        <time>2013-04-06T09:37:42Z</time>
      </trkpt>
      <trkpt lat="45.867279963567853" lon="7.642710004001856">
        <ele>2043.9000000000001</ele>
        <time>2013-04-06T09:37:46Z</time>
      </trkpt>
      <trkpt lat="45.867279963567853" lon="7.642710004001856">
        <ele>2044.8599999999999</ele>
        <time>2013-04-06T09:37:52Z</time>
      </trkpt>
      <trkpt lat="45.867279963567853" lon="7.642759960144758">
        <ele>2044.8599999999999</ele>
        <time>2013-04-06T09:38:23Z</time>
      </trkpt>
    </trkseg>
  </trk>

</gpx>